Observation data for Sierra Blanca on 03/24/2019      Previous  Date  Next       Current Mesonet Observations  Soil Data  Daily Summary Page  Observations in Plain Language
KSB1 240500Z 24002KT 15/M07 A3012 RMK A01 T01531074  RH  020%=      5-min Rain = 0
KSB1 240501Z 24002KT 15/M07 A3012 RMK A01 T01531074  RH  020%=      5-min Rain = 0
KSB1 240502Z 24002KT 16/M07 A3012 RMK A01 T01551074  RH  020%=      5-min Rain = 0
KSB1 240503Z 24003KT 16/M07 A3012 RMK A01 T01551074  RH  020%=      5-min Rain = 0
KSB1 240504Z 24002KT 15/M07 A3012 RMK A01 T01541074  RH  020%=      5-min Rain = 0
KSB1 240505Z 24002KT 15/M07 A3012 RMK A01 T01541074  RH  020%=      5-min Rain = 0
KSB1 240506Z 24003KT 15/M07 A3012 RMK A01 T01541074  RH  020%=      5-min Rain = 0
KSB1 240507Z 23003KT 15/M07 A3012 RMK A01 T01541073  RH  020%=      5-min Rain = 0
KSB1 240508Z 23003KT 15/M07 A3012 RMK A01 T01541073  RH  020%=      5-min Rain = 0
KSB1 240509Z 24003KT 15/M07 A3012 RMK A01 T01531074  RH  020%=      5-min Rain = 0
KSB1 240510Z 23003KT 15/M07 A3012 RMK A01 T01531074  RH  020%=      5-min Rain = 0
KSB1 240511Z 23003KT 15/M07 A3012 RMK A01 T01521074  RH  020%=      5-min Rain = 0
KSB1 240512Z 23003KT 15/M07 A3012 RMK A01 T01521074  RH  020%=      5-min Rain = 0
KSB1 240513Z 23004KT 15/M07 A3012 RMK A01 T01501073  RH  021%=      5-min Rain = 0
KSB1 240514Z 23004KT 15/M07 A3012 RMK A01 T01461072  RH  022%=      5-min Rain = 0
KSB1 240515Z 23003KT 14/M07 A3012 RMK A01 T01391071  RH  023%=      5-min Rain = 0
KSB1 240516Z 22003KT 13/M07 A3012 RMK A01 T01341071  RH  023%=      5-min Rain = 0
KSB1 240517Z 21003KT 13/M07 A3012 RMK A01 T01331071  RH  024%=      5-min Rain = 0
KSB1 240518Z 22003KT 13/M07 A3012 RMK A01 T01331070  RH  024%=      5-min Rain = 0
KSB1 240519Z 23003KT 13/M07 A3012 RMK A01 T01331070  RH  024%=      5-min Rain = 0
KSB1 240520Z 22003KT 13/M07 A3012 RMK A01 T01341070  RH  024%=      5-min Rain = 0
KSB1 240521Z 22002KT 14/M07 A3012 RMK A01 T01351071  RH  023%=      5-min Rain = 0
KSB1 240522Z 22002KT 14/M07 A3012 RMK A01 T01381071  RH  023%=      5-min Rain = 0
KSB1 240523Z 22003KT 14/M07 A3012 RMK A01 T01401071  RH  022%=      5-min Rain = 0
KSB1 240524Z 23002KT 14/M07 A3012 RMK A01 T01421072  RH  022%=      5-min Rain = 0
KSB1 240525Z 23002KT 14/M07 A3012 RMK A01 T01431072  RH  022%=      5-min Rain = 0
KSB1 240526Z 24002KT 14/M07 A3012 RMK A01 T01441073  RH  022%=      5-min Rain = 0
KSB1 240527Z 24002KT 15/M07 A3012 RMK A01 T01461074  RH  021%=      5-min Rain = 0
KSB1 240528Z 23002KT 15/M07 A3012 RMK A01 T01471074  RH  021%=      5-min Rain = 0
KSB1 240529Z 22002KT 15/M08 A3012 RMK A01 T01481075  RH  021%=      5-min Rain = 0
KSB1 240530Z 21002KT 15/M08 A3012 RMK A01 T01491075  RH  021%=      5-min Rain = 0
KSB1 240531Z 22001KT 15/M08 A3012 RMK A01 T01501075  RH  020%=      5-min Rain = 0
KSB1 240532Z 22001KT 15/M07 A3012 RMK A01 T01501074  RH  021%=      5-min Rain = 0
KSB1 240533Z 21001KT 15/M07 A3012 RMK A01 T01491071  RH  021%=      5-min Rain = 0
KSB1 240534Z 21001KT 15/M07 A3012 RMK A01 T01471070  RH  022%=      5-min Rain = 0
KSB1 240535Z 22002KT 15/M07 A3012 RMK A01 T01451070  RH  022%=      5-min Rain = 0
KSB1 240536Z 22002KT 14/M07 A3012 RMK A01 T01411067  RH  023%=      5-min Rain = 0
KSB1 240537Z 19002KT 14/M07 A3012 RMK A01 T01391069  RH  023%=      5-min Rain = 0
KSB1 240538Z 19001KT 14/M07 A3012 RMK A01 T01371071  RH  023%=      5-min Rain = 0
KSB1 240539Z 20001KT 14/M07 A3012 RMK A01 T01361068  RH  024%=      5-min Rain = 0
KSB1 240540Z 15001KT 13/M07 A3012 RMK A01 T01341071  RH  023%=      5-min Rain = 0
KSB1 240541Z 17001KT 13/M07 A3012 RMK A01 T01341074  RH  023%=      5-min Rain = 0
KSB1 240542Z 16002KT 14/M07 A3012 RMK A01 T01351073  RH  023%=      5-min Rain = 0
KSB1 240543Z 17001KT 14/M07 A3012 RMK A01 T01371074  RH  022%=      5-min Rain = 0
KSB1 240544Z 18001KT 14/M08 A3012 RMK A01 T01391075  RH  022%=      5-min Rain = 0
KSB1 240545Z 16001KT 14/M07 A3012 RMK A01 T01411074  RH  022%=      5-min Rain = 0
KSB1 240546Z 15001KT 14/M07 A3012 RMK A01 T01411074  RH  022%=      5-min Rain = 0
KSB1 240547Z 17001KT 14/M08 A3012 RMK A01 T01421075  RH  022%=      5-min Rain = 0
KSB1 240548Z 14002KT 14/M08 A3012 RMK A01 T01431075  RH  021%=      5-min Rain = 0
KSB1 240549Z 14002KT 14/M08 A3012 RMK A01 T01441075  RH  021%=      5-min Rain = 0
KSB1 240550Z 15001KT 15/M07 A3012 RMK A01 T01451073  RH  021%=      5-min Rain = 0
KSB1 240551Z 07002KT 14/M07 A3012 RMK A01 T01441071  RH  022%=      5-min Rain = 0
KSB1 240552Z 07003KT 14/M07 A3012 RMK A01 T01381067  RH  024%=      5-min Rain = 0
KSB1 240553Z 08001KT 13/M07 A3012 RMK A01 T01301071  RH  024%=      5-min Rain = 0
KSB1 240554Z 09002KT 13/M07 A3012 RMK A01 T01271071  RH  024%=      5-min Rain = 0
KSB1 240555Z 10002KT 13/M07 A3012 RMK A01 T01261072  RH  024%=      5-min Rain = 0
KSB1 240556Z 11003KT 13/M07 A3012 RMK A01 T01261071  RH  025%=      5-min Rain = 0
KSB1 240557Z 11003KT 13/M07 A3012 RMK A01 T01251071  RH  025%=      5-min Rain = 0
KSB1 240558Z 11003KT 12/M07 A3012 RMK A01 T01241073  RH  025%=      5-min Rain = 0
KSB1 240559Z 10003KT 13/M07 A3012 RMK A01 T01251073  RH  024%=      5-min Rain = 0
KSB1 240600Z 08002KT 13/M07 A3012 RMK A01 T01251073  RH  024%=      5-min Rain = 0
KSB1 240601Z 06002KT 12/M07 A3012 RMK A01 T01241073  RH  025%=      5-min Rain = 0
KSB1 240602Z 06002KT 12/M07 A3012 RMK A01 T01231073  RH  025%=      5-min Rain = 0
KSB1 240603Z 07003KT 12/M07 A3012 RMK A01 T01231073  RH  025%=      5-min Rain = 0
KSB1 240604Z 06002KT 12/M07 A3012 RMK A01 T01231073  RH  025%=      5-min Rain = 0
KSB1 240605Z 06002KT 12/M07 A3012 RMK A01 T01241073  RH  025%=      5-min Rain = 0
KSB1 240606Z 06002KT 12/M07 A3012 RMK A01 T01241073  RH  025%=      5-min Rain = 0
KSB1 240607Z 06001KT 12/M07 A3012 RMK A01 T01231072  RH  025%=      5-min Rain = 0
KSB1 240608Z 05002KT 12/M07 A3012 RMK A01 T01231073  RH  025%=      5-min Rain = 0
KSB1 240609Z 04002KT 12/M07 A3012 RMK A01 T01231074  RH  025%=      5-min Rain = 0
KSB1 240610Z 02003KT 12/M07 A3012 RMK A01 T01241073  RH  025%=      5-min Rain = 0
KSB1 240611Z 00003KT 12/M07 A3012 RMK A01 T01231072  RH  025%=      5-min Rain = 0
KSB1 240612Z 00002KT 12/M07 A3012 RMK A01 T01231072  RH  025%=      5-min Rain = 0
KSB1 240613Z 02002KT 12/M07 A3012 RMK A01 T01231072  RH  025%=      5-min Rain = 0
KSB1 240614Z 03002KT 12/M07 A3012 RMK A01 T01241073  RH  025%=      5-min Rain = 0
KSB1 240615Z 02003KT 13/M07 A3012 RMK A01 T01251074  RH  024%=      5-min Rain = 0
KSB1 240616Z 01002KT 13/M07 A3012 RMK A01 T01271074  RH  024%=      5-min Rain = 0
KSB1 240617Z 02002KT 13/M08 A3012 RMK A01 T01281075  RH  024%=      5-min Rain = 0
KSB1 240618Z 03003KT 13/M08 A3012 RMK A01 T01291075  RH  023%=      5-min Rain = 0
KSB1 240619Z 03003KT 13/M08 A3012 RMK A01 T01301075  RH  023%=      5-min Rain = 0
KSB1 240620Z 04002KT 13/M08 A3012 RMK A01 T01301075  RH  023%=      5-min Rain = 0
KSB1 240621Z 05002KT 13/M08 A3012 RMK A01 T01301075  RH  023%=      5-min Rain = 0
KSB1 240622Z 05002KT 13/M08 A3012 RMK A01 T01301075  RH  023%=      5-min Rain = 0
KSB1 240623Z 05001KT 13/M08 A3012 RMK A01 T01311076  RH  023%=      5-min Rain = 0
KSB1 240624Z 02002KT 13/M08 A3012 RMK A01 T01311076  RH  023%=      5-min Rain = 0
KSB1 240625Z 01002KT 13/M08 A3012 RMK A01 T01311075  RH  023%=      5-min Rain = 0
KSB1 240626Z 36003KT 13/M08 A3012 RMK A01 T01311075  RH  023%=      5-min Rain = 0
KSB1 240627Z 35003KT 13/M07 A3012 RMK A01 T01301074  RH  023%=      5-min Rain = 0
KSB1 240628Z 35003KT 13/M07 A3012 RMK A01 T01291073  RH  024%=      5-min Rain = 0
KSB1 240629Z 35002KT 13/M07 A3012 RMK A01 T01281074  RH  024%=      5-min Rain = 0
KSB1 240630Z 36001KT 13/M08 A3012 RMK A01 T01281075  RH  024%=      5-min Rain = 0
KSB1 240631Z 00000KT 13/M08 A3012 RMK A01 T01291075  RH  023%=      5-min Rain = 0
KSB1 240632Z 00000KT 13/M08 A3012 RMK A01 T01311075  RH  023%=      5-min Rain = 0
KSB1 240633Z 25000KT 13/M08 A3012 RMK A01 T01331076  RH  023%=      5-min Rain = 0
KSB1 240634Z 25000KT 14/M08 A3012 RMK A01 T01351075  RH  022%=      5-min Rain = 0
KSB1 240635Z 25000KT 14/M08 A3012 RMK A01 T01371075  RH  022%=      5-min Rain = 0
KSB1 240636Z 00000KT 14/M08 A3012 RMK A01 T01381076  RH  022%=      5-min Rain = 0
KSB1 240637Z 00000KT 14/M08 A3012 RMK A01 T01401075  RH  022%=      5-min Rain = 0
KSB1 240638Z 00000KT 14/M08 A3012 RMK A01 T01401076  RH  022%=      5-min Rain = 0
KSB1 240639Z 00000KT 14/M08 A3012 RMK A01 T01401076  RH  022%=      5-min Rain = 0
KSB1 240640Z 00000KT 14/M08 A3012 RMK A01 T01401076  RH  022%=      5-min Rain = 0
KSB1 240641Z 25000KT 14/M08 A3012 RMK A01 T01401076  RH  022%=      5-min Rain = 0
KSB1 240642Z 25001KT 14/M08 A3012 RMK A01 T01401076  RH  022%=      5-min Rain = 0
KSB1 240643Z 26001KT 14/M08 A3012 RMK A01 T01411075  RH  022%=      5-min Rain = 0
KSB1 240644Z 27001KT 14/M08 A3012 RMK A01 T01411075  RH  022%=      5-min Rain = 0
KSB1 240645Z 28002KT 14/M08 A3012 RMK A01 T01411075  RH  022%=      5-min Rain = 0
KSB1 240646Z 28002KT 14/M08 A3012 RMK A01 T01421075  RH  022%=      5-min Rain = 0
KSB1 240647Z 28001KT 14/M07 A3012 RMK A01 T01421074  RH  022%=      5-min Rain = 0
KSB1 240648Z 26001KT 14/M07 A3012 RMK A01 T01411074  RH  022%=      5-min Rain = 0
KSB1 240649Z 26001KT 14/M07 A3012 RMK A01 T01411074  RH  022%=      5-min Rain = 0
KSB1 240650Z 26001KT 14/M07 A3012 RMK A01 T01401074  RH  022%=      5-min Rain = 0
KSB1 240651Z 26001KT 14/M07 A3012 RMK A01 T01401074  RH  022%=      5-min Rain = 0
KSB1 240652Z 26001KT 14/M07 A3012 RMK A01 T01391074  RH  022%=      5-min Rain = 0
KSB1 240653Z 27002KT 14/M07 A3012 RMK A01 T01391074  RH  022%=      5-min Rain = 0
KSB1 240654Z 27002KT 14/M07 A3012 RMK A01 T01391073  RH  022%=      5-min Rain = 0
KSB1 240655Z 27002KT 14/M07 A3012 RMK A01 T01381073  RH  022%=      5-min Rain = 0
KSB1 240656Z 28002KT 14/M07 A3012 RMK A01 T01381073  RH  023%=      5-min Rain = 0
KSB1 240657Z 28003KT 14/M07 A3012 RMK A01 T01381074  RH  022%=      5-min Rain = 0
KSB1 240658Z 28003KT 14/M07 A3012 RMK A01 T01381073  RH  022%=      5-min Rain = 0
KSB1 240659Z 28003KT 14/M07 A3012 RMK A01 T01371072  RH  023%=      5-min Rain = 0
KSB1 240700Z 27002KT 14/M07 A3012 RMK A01 T01371073  RH  023%=      5-min Rain = 0
KSB1 240701Z 27002KT 14/M07 A3012 RMK A01 T01371074  RH  022%=      5-min Rain = 0
KSB1 240702Z 27002KT 14/M07 A3012 RMK A01 T01371074  RH  022%=      5-min Rain = 0
KSB1 240703Z 27002KT 14/M07 A3012 RMK A01 T01371074  RH  022%=      5-min Rain = 0
KSB1 240704Z 28002KT 14/M08 A3012 RMK A01 T01371075  RH  022%=      5-min Rain = 0
KSB1 240705Z 27002KT 14/M08 A3012 RMK A01 T01391075  RH  022%=      5-min Rain = 0
KSB1 240706Z 27002KT 14/M08 A3012 RMK A01 T01391076  RH  022%=      5-min Rain = 0
KSB1 240707Z 28002KT 14/M08 A3012 RMK A01 T01401076  RH  022%=      5-min Rain = 0
KSB1 240708Z 29002KT 14/M08 A3012 RMK A01 T01421076  RH  021%=      5-min Rain = 0
KSB1 240709Z 29002KT 14/M08 A3012 RMK A01 T01421076  RH  021%=      5-min Rain = 0
KSB1 240710Z 29002KT 14/M08 A3012 RMK A01 T01431076  RH  021%=      5-min Rain = 0
KSB1 240711Z 28002KT 14/M08 A3012 RMK A01 T01431075  RH  021%=      5-min Rain = 0
KSB1 240712Z 28002KT 14/M08 A3012 RMK A01 T01431075  RH  022%=      5-min Rain = 0
KSB1 240713Z 27003KT 14/M07 A3012 RMK A01 T01431074  RH  022%=      5-min Rain = 0
KSB1 240714Z 27003KT 14/M07 A3012 RMK A01 T01421074  RH  022%=      5-min Rain = 0
KSB1 240715Z 27003KT 14/M07 A3012 RMK A01 T01421074  RH  022%=      5-min Rain = 0
KSB1 240716Z 26002KT 14/M07 A3012 RMK A01 T01411074  RH  022%=      5-min Rain = 0
KSB1 240717Z 25002KT 14/M07 A3012 RMK A01 T01411074  RH  022%=      5-min Rain = 0
KSB1 240718Z 25002KT 14/M07 A3012 RMK A01 T01411073  RH  022%=      5-min Rain = 0
KSB1 240719Z 26002KT 14/M07 A3012 RMK A01 T01401074  RH  022%=      5-min Rain = 0
KSB1 240720Z 28003KT 14/M07 A3012 RMK A01 T01391074  RH  022%=      5-min Rain = 0
KSB1 240721Z 28004KT 14/M07 A3012 RMK A01 T01381073  RH  022%=      5-min Rain = 0
KSB1 240722Z 27005KT 14/M07 A3012 RMK A01 T01381072  RH  023%=      5-min Rain = 0
KSB1 240723Z 27005KT 14/M07 A3012 RMK A01 T01371071  RH  023%=      5-min Rain = 0
KSB1 240724Z 27005KT 14/M07 A3012 RMK A01 T01371072  RH  023%=      5-min Rain = 0
KSB1 240725Z 27005KT 14/M07 A3012 RMK A01 T01381072  RH  023%=      5-min Rain = 0
KSB1 240726Z 27005KT 14/M07 A3012 RMK A01 T01401073  RH  022%=      5-min Rain = 0
KSB1 240727Z 27005KT 14/M07 A3012 RMK A01 T01411073  RH  022%=      5-min Rain = 0
KSB1 240728Z 28006KT 14/M07 A3012 RMK A01 T01421073  RH  022%=      5-min Rain = 0
KSB1 240729Z 28006KT 14/M07 A3012 RMK A01 T01431073  RH  022%=      5-min Rain = 0
KSB1 240730Z 27005KT 14/M07 A3012 RMK A01 T01431073  RH  022%=      5-min Rain = 0
KSB1 240731Z 27005KT 15/M08 A3012 RMK A01 T01451075  RH  021%=      5-min Rain = 0
KSB1 240732Z 27005KT 15/M07 A3012 RMK A01 T01471074  RH  021%=      5-min Rain = 0
KSB1 240733Z 27006KT 15/M07 A3012 RMK A01 T01471073  RH  021%=      5-min Rain = 0
KSB1 240734Z 28006KT 15/M07 A3012 RMK A01 T01461073  RH  021%=      5-min Rain = 0
KSB1 240735Z 27006KT 15/M07 A3012 RMK A01 T01461073  RH  021%=      5-min Rain = 0
KSB1 240736Z 28005KT 15/M07 A3012 RMK A01 T01461074  RH  021%=      5-min Rain = 0
KSB1 240737Z 28005KT 15/M07 A3012 RMK A01 T01461073  RH  021%=      5-min Rain = 0
KSB1 240738Z 27005KT 15/M07 A3012 RMK A01 T01461074  RH  021%=      5-min Rain = 0
KSB1 240739Z 27006KT 15/M07 A3012 RMK A01 T01471074  RH  021%=      5-min Rain = 0
KSB1 240740Z 27005KT 15/M07 A3012 RMK A01 T01461074  RH  021%=      5-min Rain = 0
KSB1 240741Z 27006KT 15/M07 A3012 RMK A01 T01461074  RH  021%=      5-min Rain = 0
KSB1 240742Z 28006KT 15/M07 A3012 RMK A01 T01471073  RH  021%=      5-min Rain = 0
KSB1 240743Z 28006KT 15/M07 A3012 RMK A01 T01471073  RH  021%=      5-min Rain = 0
KSB1 240744Z 28006KT 15/M07 A3012 RMK A01 T01461074  RH  021%=      5-min Rain = 0
KSB1 240745Z 28006KT 15/M07 A3012 RMK A01 T01471074  RH  021%=      5-min Rain = 0
KSB1 240746Z 27006KT 15/M07 A3012 RMK A01 T01481074  RH  021%=      5-min Rain = 0
KSB1 240747Z 27005KT 15/M08 A3012 RMK A01 T01491075  RH  021%=      5-min Rain = 0
KSB1 240748Z 27005KT 15/M08 A3012 RMK A01 T01501075  RH  020%=      5-min Rain = 0
KSB1 240749Z 27005KT 15/M07 A3012 RMK A01 T01501074  RH  021%=      5-min Rain = 0
KSB1 240750Z 27005KT 15/M07 A3012 RMK A01 T01491074  RH  021%=      5-min Rain = 0
KSB1 240751Z 27005KT 15/M07 A3012 RMK A01 T01491074  RH  021%=      5-min Rain = 0
KSB1 240752Z 27005KT 15/M07 A3012 RMK A01 T01491074  RH  021%=      5-min Rain = 0
KSB1 240753Z 27006KT 15/M07 A3012 RMK A01 T01491074  RH  021%=      5-min Rain = 0
KSB1 240754Z 26006KT 15/M07 A3012 RMK A01 T01481074  RH  021%=      5-min Rain = 0
KSB1 240755Z 26006KT 15/M07 A3012 RMK A01 T01481074  RH  021%=      5-min Rain = 0
KSB1 240756Z 26006KT 15/M07 A3012 RMK A01 T01481074  RH  021%=      5-min Rain = 0
KSB1 240757Z 26006KT 15/M07 A3012 RMK A01 T01471074  RH  021%=      5-min Rain = 0
KSB1 240758Z 26006KT 15/M07 A3013 RMK A01 T01451074  RH  021%=      5-min Rain = 0
KSB1 240759Z 26006KT 15/M07 A3013 RMK A01 T01451074  RH  021%=      5-min Rain = 0
KSB1 240800Z 26006KT 14/M07 A3013 RMK A01 T01431074  RH  021%=      5-min Rain = 0
KSB1 240801Z 27006KT 14/M07 A3013 RMK A01 T01421074  RH  022%=      5-min Rain = 0
KSB1 240802Z 26006KT 14/M07 A3013 RMK A01 T01401073  RH  022%=      5-min Rain = 0
KSB1 240803Z 27006KT 14/M07 A3013 RMK A01 T01391073  RH  022%=      5-min Rain = 0
KSB1 240804Z 28006KT 14/M07 A3013 RMK A01 T01391073  RH  022%=      5-min Rain = 0
KSB1 240805Z 28006KT 14/M07 A3013 RMK A01 T01401074  RH  022%=      5-min Rain = 0
KSB1 240806Z 28006KT 14/M07 A3013 RMK A01 T01411074  RH  022%=      5-min Rain = 0
KSB1 240807Z 28006KT 14/M07 A3013 RMK A01 T01421074  RH  022%=      5-min Rain = 0
KSB1 240808Z 27005KT 14/M07 A3013 RMK A01 T01431074  RH  022%=      5-min Rain = 0
KSB1 240809Z 27005KT 14/M07 A3012 RMK A01 T01441074  RH  021%=      5-min Rain = 0
KSB1 240810Z 27005KT 14/M07 A3012 RMK A01 T01441074  RH  021%=      5-min Rain = 0
KSB1 240811Z 27005KT 14/M07 A3012 RMK A01 T01441074  RH  021%=      5-min Rain = 0
KSB1 240812Z 28005KT 14/M08 A3012 RMK A01 T01441075  RH  021%=      5-min Rain = 0
KSB1 240813Z 27005KT 14/M08 A3012 RMK A01 T01441075  RH  021%=      5-min Rain = 0
KSB1 240814Z 27005KT 15/M08 A3012 RMK A01 T01451075  RH  021%=      5-min Rain = 0
KSB1 240815Z 27005KT 15/M08 A3012 RMK A01 T01461075  RH  021%=      5-min Rain = 0
KSB1 240816Z 26006KT 15/M07 A3012 RMK A01 T01471074  RH  021%=      5-min Rain = 0
KSB1 240817Z 26005KT 15/M08 A3012 RMK A01 T01471075  RH  021%=      5-min Rain = 0
KSB1 240818Z 26005KT 15/M08 A3012 RMK A01 T01471076  RH  021%=      5-min Rain = 0
KSB1 240819Z 27005KT 15/M08 A3012 RMK A01 T01471075  RH  021%=      5-min Rain = 0
KSB1 240820Z 27005KT 15/M07 A3012 RMK A01 T01461074  RH  021%=      5-min Rain = 0
KSB1 240821Z 28005KT 15/M08 A3012 RMK A01 T01451075  RH  021%=      5-min Rain = 0
KSB1 240822Z 28005KT 15/M07 A3012 RMK A01 T01451074  RH  021%=      5-min Rain = 0
KSB1 240823Z 27005KT 15/M08 A3012 RMK A01 T01451075  RH  021%=      5-min Rain = 0
KSB1 240824Z 28005KT 15/M08 A3012 RMK A01 T01461075  RH  021%=      5-min Rain = 0
KSB1 240825Z 28005KT 15/M08 A3012 RMK A01 T01471075  RH  021%=      5-min Rain = 0
KSB1 240826Z 28005KT 15/M08 A3013 RMK A01 T01471075  RH  021%=      5-min Rain = 0
KSB1 240827Z 28005KT 15/M08 A3013 RMK A01 T01481076  RH  021%=      5-min Rain = 0
KSB1 240828Z 27005KT 15/M08 A3013 RMK A01 T01481076  RH  021%=      5-min Rain = 0
KSB1 240829Z 27005KT 15/M08 A3013 RMK A01 T01491075  RH  021%=      5-min Rain = 0
KSB1 240830Z 28005KT 15/M08 A3013 RMK A01 T01481075  RH  021%=      5-min Rain = 0
KSB1 240831Z 28005KT 15/M08 A3012 RMK A01 T01481075  RH  021%=      5-min Rain = 0
KSB1 240832Z 29006KT 15/M08 A3013 RMK A01 T01471075  RH  021%=      5-min Rain = 0
KSB1 240833Z 28005KT 15/M08 A3013 RMK A01 T01471075  RH  021%=      5-min Rain = 0
KSB1 240834Z 28005KT 15/M07 A3013 RMK A01 T01471074  RH  021%=      5-min Rain = 0
KSB1 240835Z 28006KT 15/M08 A3013 RMK A01 T01481075  RH  021%=      5-min Rain = 0
KSB1 240836Z 27005KT 15/M08 A3013 RMK A01 T01491075  RH  021%=      5-min Rain = 0
KSB1 240837Z 28005KT 15/M08 A3013 RMK A01 T01491076  RH  021%=      5-min Rain = 0
KSB1 240838Z 28006KT 15/M08 A3012 RMK A01 T01491076  RH  020%=      5-min Rain = 0
KSB1 240839Z 28006KT 15/M08 A3012 RMK A01 T01481076  RH  021%=      5-min Rain = 0
KSB1 240840Z 27006KT 15/M08 A3012 RMK A01 T01481075  RH  021%=      5-min Rain = 0
KSB1 240841Z 27006KT 15/M08 A3012 RMK A01 T01481075  RH  021%=      5-min Rain = 0
KSB1 240842Z 27006KT 15/M08 A3012 RMK A01 T01471075  RH  021%=      5-min Rain = 0
KSB1 240843Z 27005KT 15/M08 A3012 RMK A01 T01471076  RH  021%=      5-min Rain = 0
KSB1 240844Z 28005KT 15/M08 A3012 RMK A01 T01471076  RH  021%=      5-min Rain = 0
KSB1 240845Z 29006KT 15/M08 A3013 RMK A01 T01471076  RH  021%=      5-min Rain = 0
KSB1 240846Z 29007KT 15/M08 A3013 RMK A01 T01461075  RH  021%=      5-min Rain = 0
KSB1 240847Z 28006KT 15/M08 A3012 RMK A01 T01461076  RH  021%=      5-min Rain = 0
KSB1 240848Z 28006KT 15/M08 A3012 RMK A01 T01471077  RH  021%=      5-min Rain = 0
KSB1 240849Z 27005KT 15/M08 A3012 RMK A01 T01491077  RH  020%=      5-min Rain = 0
KSB1 240850Z 28005KT 15/M08 A3012 RMK A01 T01491077  RH  020%=      5-min Rain = 0
KSB1 240851Z 27005KT 15/M08 A3012 RMK A01 T01491077  RH  020%=      5-min Rain = 0
KSB1 240852Z 28006KT 15/M08 A3012 RMK A01 T01481077  RH  020%=      5-min Rain = 0
KSB1 240853Z 29006KT 15/M08 A3012 RMK A01 T01481077  RH  020%=      5-min Rain = 0
KSB1 240854Z 29006KT 15/M08 A3012 RMK A01 T01481076  RH  021%=      5-min Rain = 0
KSB1 240855Z 28005KT 15/M08 A3012 RMK A01 T01481076  RH  021%=      5-min Rain = 0
KSB1 240856Z 28005KT 15/M08 A3012 RMK A01 T01481077  RH  020%=      5-min Rain = 0
KSB1 240857Z 28005KT 15/M08 A3012 RMK A01 T01481076  RH  021%=      5-min Rain = 0
KSB1 240858Z 28005KT 15/M08 A3012 RMK A01 T01481077  RH  020%=      5-min Rain = 0
KSB1 240859Z 28005KT 15/M08 A3012 RMK A01 T01491077  RH  020%=      5-min Rain = 0
KSB1 240900Z 28006KT 15/M08 A3012 RMK A01 T01491076  RH  020%=      5-min Rain = 0
KSB1 240901Z 29006KT 15/M08 A3012 RMK A01 T01491076  RH  020%=      5-min Rain = 0
KSB1 240902Z 28005KT 15/M08 A3012 RMK A01 T01481077  RH  020%=      5-min Rain = 0
KSB1 240903Z 28006KT 15/M08 A3012 RMK A01 T01471077  RH  021%=      5-min Rain = 0
KSB1 240904Z 29006KT 15/M08 A3012 RMK A01 T01471077  RH  021%=      5-min Rain = 0
KSB1 240905Z 29006KT 15/M08 A3012 RMK A01 T01471076  RH  021%=      5-min Rain = 0
KSB1 240906Z 29006KT 15/M08 A3012 RMK A01 T01471076  RH  021%=      5-min Rain = 0
KSB1 240907Z 29006KT 15/M08 A3012 RMK A01 T01461075  RH  021%=      5-min Rain = 0
KSB1 240908Z 28006KT 15/M08 A3012 RMK A01 T01461075  RH  021%=      5-min Rain = 0
KSB1 240909Z 28006KT 15/M08 A3012 RMK A01 T01461075  RH  021%=      5-min Rain = 0
KSB1 240910Z 28005KT 15/M08 A3012 RMK A01 T01461076  RH  021%=      5-min Rain = 0
KSB1 240911Z 29005KT 15/M08 A3012 RMK A01 T01471076  RH  021%=      5-min Rain = 0
KSB1 240912Z 29006KT 15/M08 A3012 RMK A01 T01461076  RH  021%=      5-min Rain = 0
KSB1 240913Z 29006KT 15/M08 A3012 RMK A01 T01461075  RH  021%=      5-min Rain = 0
KSB1 240914Z 29007KT 15/M07 A3012 RMK A01 T01451073  RH  021%=      5-min Rain = 0
KSB1 240915Z 29007KT 14/M07 A3012 RMK A01 T01441072  RH  022%=      5-min Rain = 0
KSB1 240916Z 29006KT 14/M07 A3012 RMK A01 T01441072  RH  022%=      5-min Rain = 0
KSB1 240917Z 29006KT 14/M07 A3012 RMK A01 T01441071  RH  022%=      5-min Rain = 0
KSB1 240918Z 29006KT 14/M07 A3012 RMK A01 T01441071  RH  022%=      5-min Rain = 0
KSB1 240919Z 29006KT 14/M07 A3012 RMK A01 T01441071  RH  022%=      5-min Rain = 0
KSB1 240920Z 29007KT 15/M07 A3012 RMK A01 T01451071  RH  022%=      5-min Rain = 0
KSB1 240921Z 29007KT 15/M07 A3012 RMK A01 T01461070  RH  022%=      5-min Rain = 0
KSB1 240922Z 29007KT 15/M07 A3012 RMK A01 T01461071  RH  022%=      5-min Rain = 0
KSB1 240923Z 29006KT 15/M07 A3012 RMK A01 T01481070  RH  022%=      5-min Rain = 0
KSB1 240924Z 29006KT 15/M07 A3012 RMK A01 T01481070  RH  022%=      5-min Rain = 0
KSB1 240925Z 29006KT 15/M07 A3012 RMK A01 T01471069  RH  022%=      5-min Rain = 0
KSB1 240926Z 29006KT 15/M07 A3012 RMK A01 T01471069  RH  022%=      5-min Rain = 0
KSB1 240927Z 29006KT 15/M07 A3012 RMK A01 T01461069  RH  022%=      5-min Rain = 0
KSB1 240928Z 29006KT 15/M07 A3012 RMK A01 T01461069  RH  022%=      5-min Rain = 0
KSB1 240929Z 29006KT 15/M07 A3012 RMK A01 T01461069  RH  022%=      5-min Rain = 0
KSB1 240930Z 29006KT 15/M07 A3012 RMK A01 T01461068  RH  022%=      5-min Rain = 0
KSB1 240931Z 30005KT 15/M07 A3012 RMK A01 T01461068  RH  022%=      5-min Rain = 0
KSB1 240932Z 29006KT 15/M07 A3012 RMK A01 T01451068  RH  022%=      5-min Rain = 0
KSB1 240933Z 30006KT 14/M07 A3012 RMK A01 T01441067  RH  023%=      5-min Rain = 0
KSB1 240934Z 29006KT 14/M07 A3012 RMK A01 T01431067  RH  023%=      5-min Rain = 0
KSB1 240935Z 28005KT 14/M07 A3012 RMK A01 T01431067  RH  023%=      5-min Rain = 0
KSB1 240936Z 29005KT 14/M07 A3012 RMK A01 T01441067  RH  023%=      5-min Rain = 0
KSB1 240937Z 30005KT 14/M07 A3012 RMK A01 T01431066  RH  023%=      5-min Rain = 0
KSB1 240938Z 29006KT 14/M07 A3012 RMK A01 T01401066  RH  023%=      5-min Rain = 0
KSB1 240939Z 29005KT 14/M07 A3012 RMK A01 T01391066  RH  023%=      5-min Rain = 0
KSB1 240940Z 29005KT 14/M07 A3012 RMK A01 T01401067  RH  023%=      5-min Rain = 0
KSB1 240941Z 29005KT 14/M07 A3012 RMK A01 T01401066  RH  023%=      5-min Rain = 0
KSB1 240942Z 29005KT 14/M07 A3012 RMK A01 T01401066  RH  023%=      5-min Rain = 0
KSB1 240943Z 29006KT 14/M07 A3012 RMK A01 T01391066  RH  024%=      5-min Rain = 0
KSB1 240944Z 30006KT 14/M07 A3012 RMK A01 T01391066  RH  024%=      5-min Rain = 0
KSB1 240945Z 29006KT 14/M07 A3012 RMK A01 T01401066  RH  023%=      5-min Rain = 0
KSB1 240946Z 30006KT 14/M07 A3012 RMK A01 T01421066  RH  023%=      5-min Rain = 0
KSB1 240947Z 29006KT 14/M07 A3012 RMK A01 T01431065  RH  023%=      5-min Rain = 0
KSB1 240948Z 30006KT 14/M07 A3012 RMK A01 T01441066  RH  023%=      5-min Rain = 0
KSB1 240949Z 29006KT 15/M07 A3012 RMK A01 T01451065  RH  023%=      5-min Rain = 0
KSB1 240950Z 29006KT 15/M07 A3012 RMK A01 T01461065  RH  023%=      5-min Rain = 0
KSB1 240951Z 30006KT 15/M06 A3012 RMK A01 T01461064  RH  023%=      5-min Rain = 0
KSB1 240952Z 30006KT 15/M06 A3012 RMK A01 T01461064  RH  023%=      5-min Rain = 0
KSB1 240953Z 29006KT 15/M06 A3012 RMK A01 T01451064  RH  023%=      5-min Rain = 0
KSB1 240954Z 30005KT 15/M06 A3012 RMK A01 T01471064  RH  023%=      5-min Rain = 0
KSB1 240955Z 30004KT 14/M07 A3012 RMK A01 T01421070  RH  022%=      5-min Rain = 0
KSB1 240956Z 29005KT 13/M08 A3012 RMK A01 T01281075  RH  024%=      5-min Rain = 0
KSB1 240957Z 30005KT 12/M07 A3012 RMK A01 T01181074  RH  025%=      5-min Rain = 0
KSB1 240958Z 29005KT 11/M07 A3012 RMK A01 T01121073  RH  027%=      5-min Rain = 0
KSB1 240959Z 29005KT 11/M07 A3012 RMK A01 T01101068  RH  028%=      5-min Rain = 0
KSB1 241000Z 29005KT 12/M06 A3012 RMK A01 T01151064  RH  028%=      5-min Rain = 0
KSB1 241001Z 29005KT 12/M06 A3012 RMK A01 T01241063  RH  027%=      5-min Rain = 0
KSB1 241002Z 29003KT 12/M07 A3012 RMK A01 T01221070  RH  025%=      5-min Rain = 0
KSB1 241003Z 28004KT 12/M07 A3012 RMK A01 T01161071  RH  026%=      5-min Rain = 0
KSB1 241004Z 29004KT 11/M07 A3012 RMK A01 T01111069  RH  028%=      5-min Rain = 0
KSB1 241005Z 29004KT 11/M07 A3012 RMK A01 T01101066  RH  028%=      5-min Rain = 0
KSB1 241006Z 29005KT 11/M07 A3012 RMK A01 T01121066  RH  028%=      5-min Rain = 0
KSB1 241007Z 30005KT 12/M06 A3012 RMK A01 T01211061  RH  028%=      5-min Rain = 0
KSB1 241008Z 30004KT 13/M06 A3012 RMK A01 T01301060  RH  026%=      5-min Rain = 0
KSB1 241009Z 31003KT 14/M06 A3012 RMK A01 T01361062  RH  025%=      5-min Rain = 0
KSB1 241010Z 30004KT 13/M07 A3012 RMK A01 T01291070  RH  024%=      5-min Rain = 0
KSB1 241011Z 30005KT 11/M07 A3012 RMK A01 T01141070  RH  027%=      5-min Rain = 0
KSB1 241012Z 31006KT 11/M07 A3012 RMK A01 T01091069  RH  028%=      5-min Rain = 0
KSB1 241013Z 30004KT 11/M07 A3012 RMK A01 T01081070  RH  028%=      5-min Rain = 0
KSB1 241014Z 29004KT 10/M07 A3012 RMK A01 T01041069  RH  029%=      5-min Rain = 0
KSB1 241015Z 29004KT 11/M07 A3012 RMK A01 T01061066  RH  029%=      5-min Rain = 0
KSB1 241016Z 29004KT 11/M06 A3012 RMK A01 T01121063  RH  029%=      5-min Rain = 0
KSB1 241017Z 29005KT 12/M06 A3012 RMK A01 T01211060  RH  028%=      5-min Rain = 0
KSB1 241018Z 29006KT 13/M06 A3012 RMK A01 T01301060  RH  026%=      5-min Rain = 0
KSB1 241019Z 30006KT 14/M06 A3012 RMK A01 T01351061  RH  025%=      5-min Rain = 0
KSB1 241020Z 30006KT 14/M06 A3012 RMK A01 T01401061  RH  024%=      5-min Rain = 0
KSB1 241021Z 29006KT 13/M07 A3012 RMK A01 T01341066  RH  024%=      5-min Rain = 0
KSB1 241022Z 30007KT 13/M06 A3012 RMK A01 T01281062  RH  026%=      5-min Rain = 0
KSB1 241023Z 29006KT 14/M06 A3012 RMK A01 T01391059  RH  025%=      5-min Rain = 0
KSB1 241024Z 29006KT 15/M06 A3012 RMK A01 T01461060  RH  024%=      5-min Rain = 0
KSB1 241025Z 30006KT 15/M06 A3012 RMK A01 T01491060  RH  023%=      5-min Rain = 0
KSB1 241026Z 30006KT 15/M06 A3012 RMK A01 T01501060  RH  023%=      5-min Rain = 0
KSB1 241027Z 30006KT 15/M06 A3012 RMK A01 T01511061  RH  023%=      5-min Rain = 0
KSB1 241028Z 30006KT 15/M06 A3012 RMK A01 T01511061  RH  023%=      5-min Rain = 0
KSB1 241029Z 29005KT 15/M06 A3012 RMK A01 T01521060  RH  023%=      5-min Rain = 0
KSB1 241030Z 29005KT 15/M06 A3012 RMK A01 T01511061  RH  023%=      5-min Rain = 0
KSB1 241031Z 29005KT 15/M06 A3012 RMK A01 T01501062  RH  023%=      5-min Rain = 0
KSB1 241032Z 29005KT 15/M06 A3012 RMK A01 T01491061  RH  023%=      5-min Rain = 0
KSB1 241033Z 29006KT 15/M06 A3012 RMK A01 T01481061  RH  023%=      5-min Rain = 0
KSB1 241034Z 29006KT 15/M06 A3012 RMK A01 T01481062  RH  023%=      5-min Rain = 0
KSB1 241035Z 29005KT 15/M06 A3012 RMK A01 T01491062  RH  023%=      5-min Rain = 0
KSB1 241036Z 29006KT 15/M06 A3012 RMK A01 T01491062  RH  023%=      5-min Rain = 0
KSB1 241037Z 30007KT 15/M06 A3012 RMK A01 T01481062  RH  023%=      5-min Rain = 0
KSB1 241038Z 30006KT 15/M06 A3012 RMK A01 T01481062  RH  023%=      5-min Rain = 0
KSB1 241039Z 30005KT 15/M06 A3012 RMK A01 T01491062  RH  023%=      5-min Rain = 0
KSB1 241040Z 31005KT 15/M06 A3012 RMK A01 T01491061  RH  023%=      5-min Rain = 0
KSB1 241041Z 30004KT 15/M06 A3012 RMK A01 T01491062  RH  023%=      5-min Rain = 0
KSB1 241042Z 30006KT 15/M06 A3012 RMK A01 T01481061  RH  023%=      5-min Rain = 0
KSB1 241043Z 30005KT 15/M06 A3012 RMK A01 T01481062  RH  023%=      5-min Rain = 0
KSB1 241044Z 30005KT 15/M06 A3012 RMK A01 T01481062  RH  023%=      5-min Rain = 0
KSB1 241045Z 30006KT 15/M06 A3012 RMK A01 T01491062  RH  023%=      5-min Rain = 0
KSB1 241046Z 30006KT 15/M06 A3012 RMK A01 T01501063  RH  022%=      5-min Rain = 0
KSB1 241047Z 29006KT 15/M06 A3012 RMK A01 T01521062  RH  022%=      5-min Rain = 0
KSB1 241048Z 30006KT 15/M06 A3012 RMK A01 T01521062  RH  022%=      5-min Rain = 0
KSB1 241049Z 30006KT 15/M06 A3012 RMK A01 T01511062  RH  022%=      5-min Rain = 0
KSB1 241050Z 30006KT 15/M06 A3012 RMK A01 T01501062  RH  022%=      5-min Rain = 0
KSB1 241051Z 30006KT 15/M06 A3012 RMK A01 T01511063  RH  022%=      5-min Rain = 0
KSB1 241052Z 31005KT 15/M06 A3012 RMK A01 T01511063  RH  022%=      5-min Rain = 0
KSB1 241053Z 31006KT 15/M06 A3012 RMK A01 T01521063  RH  022%=      5-min Rain = 0
KSB1 241054Z 31005KT 15/M06 A3013 RMK A01 T01531062  RH  022%=      5-min Rain = 0
KSB1 241055Z 31006KT 15/M06 A3013 RMK A01 T01521062  RH  022%=      5-min Rain = 0
KSB1 241056Z 30007KT 15/M06 A3013 RMK A01 T01511063  RH  022%=      5-min Rain = 0
KSB1 241057Z 30006KT 15/M06 A3013 RMK A01 T01511063  RH  022%=      5-min Rain = 0
KSB1 241058Z 31007KT 15/M06 A3013 RMK A01 T01501064  RH  022%=      5-min Rain = 0
KSB1 241059Z 32006KT 15/M06 A3013 RMK A01 T01521064  RH  022%=      5-min Rain = 0
KSB1 241100Z 31006KT 15/M06 A3013 RMK A01 T01521064  RH  022%=      5-min Rain = 0
KSB1 241101Z 30006KT 15/M06 A3013 RMK A01 T01521063  RH  022%=      5-min Rain = 0
KSB1 241102Z 30006KT 15/M06 A3013 RMK A01 T01511063  RH  022%=      5-min Rain = 0
KSB1 241103Z 31005KT 15/M06 A3013 RMK A01 T01501063  RH  022%=      5-min Rain = 0
KSB1 241104Z 31006KT 15/M06 A3013 RMK A01 T01501063  RH  022%=      5-min Rain = 0
KSB1 241105Z 31006KT 15/M06 A3013 RMK A01 T01501063  RH  022%=      5-min Rain = 0
KSB1 241106Z 30006KT 15/M06 A3013 RMK A01 T01491063  RH  022%=      5-min Rain = 0
KSB1 241107Z 31005KT 15/M06 A3013 RMK A01 T01491063  RH  023%=      5-min Rain = 0
KSB1 241108Z 31005KT 14/M06 A3013 RMK A01 T01431063  RH  023%=      5-min Rain = 0
KSB1 241109Z 31005KT 14/M06 A3013 RMK A01 T01401063  RH  024%=      5-min Rain = 0
KSB1 241110Z 30006KT 14/M06 A3013 RMK A01 T01411062  RH  024%=      5-min Rain = 0
KSB1 241111Z 30006KT 14/M06 A3013 RMK A01 T01431062  RH  024%=      5-min Rain = 0
KSB1 241112Z 30005KT 14/M06 A3013 RMK A01 T01441062  RH  024%=      5-min Rain = 0
KSB1 241113Z 31005KT 14/M06 A3013 RMK A01 T01441062  RH  023%=      5-min Rain = 0
KSB1 241114Z 30005KT 15/M06 A3013 RMK A01 T01451063  RH  023%=      5-min Rain = 0
KSB1 241115Z 30004KT 15/M06 A3013 RMK A01 T01461061  RH  023%=      5-min Rain = 0
KSB1 241116Z 31005KT 14/M06 A3013 RMK A01 T01441061  RH  024%=      5-min Rain = 0
KSB1 241117Z 30005KT 14/M06 A3013 RMK A01 T01401063  RH  024%=      5-min Rain = 0
KSB1 241118Z 31005KT 13/M07 A3013 RMK A01 T01291065  RH  025%=      5-min Rain = 0
KSB1 241119Z 31005KT 12/M07 A3013 RMK A01 T01241065  RH  026%=      5-min Rain = 0
KSB1 241120Z 31004KT 12/M07 A3013 RMK A01 T01161067  RH  027%=      5-min Rain = 0
KSB1 241121Z 32003KT 11/M07 A3013 RMK A01 T01061069  RH  029%=      5-min Rain = 0
KSB1 241122Z 32004KT 10/M07 A3013 RMK A01 T01001067  RH  030%=      5-min Rain = 0
KSB1 241123Z 31005KT 10/M07 A3013 RMK A01 T00991066  RH  031%=      5-min Rain = 0
KSB1 241124Z 31004KT 10/M06 A3013 RMK A01 T01041064  RH  030%=      5-min Rain = 0
KSB1 241125Z 31003KT 11/M07 A3013 RMK A01 T01071066  RH  029%=      5-min Rain = 0
KSB1 241126Z 31004KT 11/M07 A3013 RMK A01 T01051066  RH  030%=      5-min Rain = 0
KSB1 241127Z 30002KT 11/M06 A3013 RMK A01 T01081063  RH  029%=      5-min Rain = 0
KSB1 241128Z 28002KT 11/M06 A3013 RMK A01 T01091062  RH  029%=      5-min Rain = 0
KSB1 241129Z 30002KT 11/M06 A3013 RMK A01 T01101062  RH  029%=      5-min Rain = 0
KSB1 241130Z 01000KT 11/M07 A3013 RMK A01 T01091065  RH  029%=      5-min Rain = 0
KSB1 241131Z 03003KT 10/M07 A3013 RMK A01 T00981069  RH  030%=      5-min Rain = 0
KSB1 241132Z 01001KT 09/M07 A3013 RMK A01 T00891070  RH  032%=      5-min Rain = 0
KSB1 241133Z 34002KT 09/M07 A3013 RMK A01 T00861070  RH  032%=      5-min Rain = 0
KSB1 241134Z 34002KT 09/M07 A3013 RMK A01 T00891068  RH  032%=      5-min Rain = 0
KSB1 241135Z 35001KT 09/M07 A3013 RMK A01 T00901069  RH  032%=      5-min Rain = 0
KSB1 241136Z 02001KT 09/M07 A3013 RMK A01 T00941069  RH  031%=      5-min Rain = 0
KSB1 241137Z 04002KT 10/M07 A3013 RMK A01 T00981069  RH  030%=      5-min Rain = 0
KSB1 241138Z 02001KT 10/M07 A3013 RMK A01 T00991069  RH  030%=      5-min Rain = 0
KSB1 241139Z 35001KT 10/M07 A3013 RMK A01 T00981069  RH  030%=      5-min Rain = 0
KSB1 241140Z 02002KT 10/M07 A3013 RMK A01 T00961069  RH  031%=      5-min Rain = 0
KSB1 241141Z 01004KT 09/M07 A3013 RMK A01 T00931071  RH  031%=      5-min Rain = 0
KSB1 241142Z 01005KT 09/M07 A3013 RMK A01 T00911070  RH  031%=      5-min Rain = 0
KSB1 241143Z 01004KT 09/M07 A3013 RMK A01 T00891070  RH  032%=      5-min Rain = 0
KSB1 241144Z 01004KT 09/M07 A3013 RMK A01 T00891070  RH  032%=      5-min Rain = 0
KSB1 241145Z 01003KT 09/M07 A3013 RMK A01 T00911070  RH  031%=      5-min Rain = 0
KSB1 241146Z 01004KT 09/M07 A3013 RMK A01 T00941069  RH  031%=      5-min Rain = 0
KSB1 241147Z 00005KT 10/M07 A3013 RMK A01 T00961068  RH  031%=      5-min Rain = 0
KSB1 241148Z 01004KT 10/M07 A3013 RMK A01 T00971068  RH  031%=      5-min Rain = 0
KSB1 241149Z 01004KT 10/M07 A3013 RMK A01 T00991068  RH  030%=      5-min Rain = 0
KSB1 241150Z 00004KT 10/M07 A3013 RMK A01 T01001068  RH  030%=      5-min Rain = 0
KSB1 241151Z 02004KT 10/M07 A3013 RMK A01 T01021067  RH  030%=      5-min Rain = 0
KSB1 241152Z 03003KT 10/M07 A3013 RMK A01 T01031067  RH  030%=      5-min Rain = 0
KSB1 241153Z 03003KT 11/M07 A3013 RMK A01 T01051068  RH  029%=      5-min Rain = 0
KSB1 241154Z 03003KT 11/M07 A3013 RMK A01 T01081068  RH  029%=      5-min Rain = 0
KSB1 241155Z 03003KT 11/M07 A3013 RMK A01 T01091068  RH  028%=      5-min Rain = 0
KSB1 241156Z 01003KT 11/M07 A3013 RMK A01 T01101068  RH  028%=      5-min Rain = 0
KSB1 241157Z 02003KT 11/M07 A3013 RMK A01 T01111068  RH  028%=      5-min Rain = 0
KSB1 241158Z 02003KT 11/M07 A3013 RMK A01 T01141068  RH  027%=      5-min Rain = 0
KSB1 241159Z 02003KT 12/M07 A3013 RMK A01 T01151067  RH  027%=      5-min Rain = 0
KSB1 241200Z 03003KT 11/M07 A3013 RMK A01 T01141068  RH  027%=      5-min Rain = 0
KSB1 241201Z 02004KT 12/M07 A3013 RMK A01 T01151067  RH  027%=      5-min Rain = 0
KSB1 241202Z 03003KT 12/M07 A3013 RMK A01 T01151067  RH  027%=      5-min Rain = 0
KSB1 241203Z 03003KT 12/M07 A3013 RMK A01 T01151068  RH  027%=      5-min Rain = 0
KSB1 241204Z 00004KT 12/M07 A3013 RMK A01 T01181067  RH  027%=      5-min Rain = 0
KSB1 241205Z 02003KT 12/M07 A3013 RMK A01 T01171067  RH  027%=      5-min Rain = 0
KSB1 241206Z 02002KT 12/M07 A3013 RMK A01 T01171068  RH  027%=      5-min Rain = 0
KSB1 241207Z 36003KT 12/M07 A3013 RMK A01 T01191068  RH  026%=      5-min Rain = 0
KSB1 241208Z 01004KT 12/M07 A3013 RMK A01 T01201067  RH  026%=      5-min Rain = 0
KSB1 241209Z 01003KT 12/M07 A3013 RMK A01 T01181067  RH  027%=      5-min Rain = 0
KSB1 241210Z 01004KT 12/M07 A3013 RMK A01 T01151067  RH  027%=      5-min Rain = 0
KSB1 241211Z 36004KT 11/M07 A3013 RMK A01 T01141067  RH  028%=      5-min Rain = 0
KSB1 241212Z 35005KT 11/M07 A3013 RMK A01 T01131067  RH  028%=      5-min Rain = 0
KSB1 241213Z 00004KT 11/M07 A3013 RMK A01 T01131067  RH  028%=      5-min Rain = 0
KSB1 241214Z 35005KT 11/M07 A3013 RMK A01 T01141067  RH  028%=      5-min Rain = 0
KSB1 241215Z 00003KT 11/M07 A3013 RMK A01 T01131068  RH  028%=      5-min Rain = 0
KSB1 241216Z 01003KT 11/M07 A3013 RMK A01 T01121067  RH  028%=      5-min Rain = 0
KSB1 241217Z 34003KT 11/M07 A3013 RMK A01 T01131067  RH  028%=      5-min Rain = 0
KSB1 241218Z 35004KT 11/M07 A3013 RMK A01 T01141067  RH  027%=      5-min Rain = 0
KSB1 241219Z 36003KT 11/M07 A3013 RMK A01 T01131068  RH  028%=      5-min Rain = 0
KSB1 241220Z 01002KT 11/M07 A3013 RMK A01 T01131067  RH  028%=      5-min Rain = 0
KSB1 241221Z 01002KT 11/M07 A3013 RMK A01 T01131067  RH  028%=      5-min Rain = 0
KSB1 241222Z 03002KT 12/M07 A3013 RMK A01 T01151068  RH  027%=      5-min Rain = 0
KSB1 241223Z 02002KT 12/M07 A3013 RMK A01 T01201068  RH  026%=      5-min Rain = 0
KSB1 241224Z 01002KT 12/M07 A3013 RMK A01 T01221068  RH  026%=      5-min Rain = 0
KSB1 241225Z 02002KT 12/M07 A3013 RMK A01 T01221066  RH  026%=      5-min Rain = 0
KSB1 241226Z 03001KT 12/M07 A3013 RMK A01 T01191066  RH  027%=      5-min Rain = 0
KSB1 241227Z 00002KT 12/M07 A3014 RMK A01 T01181067  RH  027%=      5-min Rain = 0
KSB1 241228Z 01002KT 12/M07 A3014 RMK A01 T01191068  RH  027%=      5-min Rain = 0
KSB1 241229Z 36002KT 12/M07 A3014 RMK A01 T01211068  RH  026%=      5-min Rain = 0
KSB1 241230Z 01001KT 12/M07 A3014 RMK A01 T01211068  RH  026%=      5-min Rain = 0
KSB1 241231Z 01001KT 12/M07 A3014 RMK A01 T01211067  RH  026%=      5-min Rain = 0
KSB1 241232Z 03001KT 12/M07 A3014 RMK A01 T01231068  RH  026%=      5-min Rain = 0
KSB1 241233Z 03001KT 12/M07 A3014 RMK A01 T01231068  RH  026%=      5-min Rain = 0
KSB1 241234Z 03002KT 12/M07 A3014 RMK A01 T01231068  RH  026%=      5-min Rain = 0
KSB1 241235Z 03002KT 12/M07 A3014 RMK A01 T01231068  RH  026%=      5-min Rain = 0
KSB1 241236Z 03002KT 13/M07 A3014 RMK A01 T01251068  RH  025%=      5-min Rain = 0
KSB1 241237Z 02001KT 13/M07 A3014 RMK A01 T01271067  RH  025%=      5-min Rain = 0
KSB1 241238Z 36001KT 13/M07 A3014 RMK A01 T01281067  RH  025%=      5-min Rain = 0
KSB1 241239Z 01001KT 13/M07 A3014 RMK A01 T01291067  RH  025%=      5-min Rain = 0
KSB1 241240Z 35002KT 13/M07 A3014 RMK A01 T01311067  RH  025%=      5-min Rain = 0
KSB1 241241Z 35003KT 13/M07 A3014 RMK A01 T01301067  RH  025%=      5-min Rain = 0
KSB1 241242Z 01001KT 13/M07 A3014 RMK A01 T01281067  RH  025%=      5-min Rain = 0
KSB1 241243Z 04001KT 13/M07 A3014 RMK A01 T01281068  RH  025%=      5-min Rain = 0
KSB1 241244Z 36003KT 13/M07 A3014 RMK A01 T01301067  RH  025%=      5-min Rain = 0
KSB1 241245Z 34003KT 13/M07 A3014 RMK A01 T01311067  RH  025%=      5-min Rain = 0
KSB1 241246Z 35002KT 13/M07 A3014 RMK A01 T01301067  RH  025%=      5-min Rain = 0
KSB1 241247Z 35000KT 13/M07 A3014 RMK A01 T01301067  RH  025%=      5-min Rain = 0
KSB1 241248Z 14001KT 13/M07 A3014 RMK A01 T01331066  RH  024%=      5-min Rain = 0
KSB1 241249Z 35001KT 14/M07 A3014 RMK A01 T01351066  RH  024%=      5-min Rain = 0
KSB1 241250Z 35002KT 13/M07 A3014 RMK A01 T01331066  RH  024%=      5-min Rain = 0
KSB1 241251Z 01002KT 13/M07 A3014 RMK A01 T01301067  RH  025%=      5-min Rain = 0
KSB1 241252Z 04000KT 13/M07 A3014 RMK A01 T01301067  RH  025%=      5-min Rain = 0
KSB1 241253Z 00000KT 13/M07 A3014 RMK A01 T01301065  RH  025%=      5-min Rain = 0
KSB1 241254Z 36001KT 13/M07 A3014 RMK A01 T01281066  RH  025%=      5-min Rain = 0
KSB1 241255Z 35001KT 13/M07 A3014 RMK A01 T01271066  RH  025%=      5-min Rain = 0
KSB1 241256Z 02001KT 13/M07 A3014 RMK A01 T01271067  RH  025%=      5-min Rain = 0
KSB1 241257Z 02002KT 13/M07 A3014 RMK A01 T01271067  RH  025%=      5-min Rain = 0
KSB1 241258Z 35003KT 13/M07 A3014 RMK A01 T01281066  RH  025%=      5-min Rain = 0
KSB1 241259Z 36002KT 13/M07 A3015 RMK A01 T01271067  RH  025%=      5-min Rain = 0
KSB1 241300Z 36003KT 13/M07 A3015 RMK A01 T01261066  RH  025%=      5-min Rain = 0
KSB1 241301Z 02003KT 13/M07 A3015 RMK A01 T01251067  RH  026%=      5-min Rain = 0
KSB1 241302Z 00003KT 12/M07 A3014 RMK A01 T01241067  RH  026%=      5-min Rain = 0
KSB1 241303Z 35004KT 12/M07 A3015 RMK A01 T01221066  RH  026%=      5-min Rain = 0
KSB1 241304Z 00003KT 12/M07 A3015 RMK A01 T01201065  RH  027%=      5-min Rain = 0
KSB1 241305Z 36003KT 12/M07 A3015 RMK A01 T01191065  RH  027%=      5-min Rain = 0
KSB1 241306Z 36003KT 12/M07 A3015 RMK A01 T01181065  RH  027%=      5-min Rain = 0
KSB1 241307Z 36004KT 12/M07 A3015 RMK A01 T01181065  RH  027%=      5-min Rain = 0
KSB1 241308Z 35003KT 12/M07 A3015 RMK A01 T01171065  RH  027%=      5-min Rain = 0
KSB1 241309Z 01003KT 12/M07 A3015 RMK A01 T01161065  RH  028%=      5-min Rain = 0
KSB1 241310Z 01003KT 12/M07 A3015 RMK A01 T01151065  RH  028%=      5-min Rain = 0
KSB1 241311Z 02003KT 12/M07 A3015 RMK A01 T01151065  RH  028%=      5-min Rain = 0
KSB1 241312Z 03003KT 12/M07 A3015 RMK A01 T01151065  RH  028%=      5-min Rain = 0
KSB1 241313Z 03003KT 12/M06 A3015 RMK A01 T01151064  RH  028%=      5-min Rain = 0
KSB1 241314Z 00004KT 12/M06 A3015 RMK A01 T01151064  RH  028%=      5-min Rain = 0
KSB1 241315Z 01004KT 12/M06 A3015 RMK A01 T01151064  RH  028%=      5-min Rain = 0
KSB1 241316Z 00004KT 12/M06 A3015 RMK A01 T01161064  RH  028%=      5-min Rain = 0
KSB1 241317Z 01004KT 12/M06 A3015 RMK A01 T01161064  RH  028%=      5-min Rain = 0
KSB1 241318Z 01004KT 12/M06 A3015 RMK A01 T01151064  RH  028%=      5-min Rain = 0
KSB1 241319Z 01004KT 11/M06 A3015 RMK A01 T01141063  RH  028%=      5-min Rain = 0
KSB1 241320Z 35003KT 11/M06 A3015 RMK A01 T01131064  RH  028%=      5-min Rain = 0
KSB1 241321Z 00004KT 11/M06 A3015 RMK A01 T01131064  RH  028%=      5-min Rain = 0
KSB1 241322Z 33004KT 11/M06 A3015 RMK A01 T01131063  RH  029%=      5-min Rain = 0
KSB1 241323Z 36004KT 11/M06 A3015 RMK A01 T01121062  RH  029%=      5-min Rain = 0
KSB1 241324Z 00004KT 11/M06 A3015 RMK A01 T01111062  RH  029%=      5-min Rain = 0
KSB1 241325Z 36004KT 11/M06 A3015 RMK A01 T01121062  RH  029%=      5-min Rain = 0
KSB1 241326Z 01004KT 11/M06 A3015 RMK A01 T01131062  RH  029%=      5-min Rain = 0
KSB1 241327Z 02004KT 12/M06 A3015 RMK A01 T01151062  RH  028%=      5-min Rain = 0
KSB1 241328Z 02004KT 12/M06 A3015 RMK A01 T01171062  RH  028%=      5-min Rain = 0
KSB1 241329Z 01003KT 12/M06 A3015 RMK A01 T01171062  RH  028%=      5-min Rain = 0
KSB1 241330Z 03004KT 12/M06 A3015 RMK A01 T01171062  RH  028%=      5-min Rain = 0
KSB1 241331Z 01003KT 12/M06 A3015 RMK A01 T01181062  RH  028%=      5-min Rain = 0
KSB1 241332Z 01003KT 12/M06 A3015 RMK A01 T01181060  RH  028%=      5-min Rain = 0
KSB1 241333Z 00003KT 12/M06 A3016 RMK A01 T01181061  RH  028%=      5-min Rain = 0
KSB1 241334Z 35003KT 12/M06 A3016 RMK A01 T01201061  RH  028%=      5-min Rain = 0
KSB1 241335Z 36003KT 12/M06 A3016 RMK A01 T01211060  RH  028%=      5-min Rain = 0
KSB1 241336Z 36003KT 12/M06 A3016 RMK A01 T01211060  RH  028%=      5-min Rain = 0
KSB1 241337Z 34003KT 12/M06 A3016 RMK A01 T01221060  RH  028%=      5-min Rain = 0
KSB1 241338Z 36002KT 12/M06 A3016 RMK A01 T01221059  RH  028%=      5-min Rain = 0
KSB1 241339Z 01002KT 12/M06 A3016 RMK A01 T01221059  RH  028%=      5-min Rain = 0
KSB1 241340Z 34002KT 12/M06 A3016 RMK A01 T01241062  RH  027%=      5-min Rain = 0
KSB1 241341Z 34003KT 13/M06 A3016 RMK A01 T01251060  RH  027%=      5-min Rain = 0
KSB1 241342Z 35002KT 13/M06 A3016 RMK A01 T01251060  RH  027%=      5-min Rain = 0
KSB1 241343Z 36002KT 13/M06 A3016 RMK A01 T01251060  RH  027%=      5-min Rain = 0
KSB1 241344Z 35002KT 13/M06 A3016 RMK A01 T01261060  RH  027%=      5-min Rain = 0
KSB1 241345Z 00002KT 13/M06 A3016 RMK A01 T01261059  RH  027%=      5-min Rain = 0
KSB1 241346Z 00003KT 13/M06 A3016 RMK A01 T01261060  RH  027%=      5-min Rain = 0
KSB1 241347Z 01003KT 13/M06 A3016 RMK A01 T01271060  RH  027%=      5-min Rain = 0
KSB1 241348Z 01003KT 13/M06 A3016 RMK A01 T01271059  RH  027%=      5-min Rain = 0
KSB1 241349Z 01003KT 13/M06 A3016 RMK A01 T01271058  RH  027%=      5-min Rain = 0
KSB1 241350Z 00003KT 13/M06 A3016 RMK A01 T01271057  RH  027%=      5-min Rain = 0
KSB1 241351Z 01003KT 13/M06 A3016 RMK A01 T01261057  RH  027%=      5-min Rain = 0
KSB1 241352Z 01003KT 13/M06 A3016 RMK A01 T01261057  RH  027%=      5-min Rain = 0
KSB1 241353Z 01003KT 13/M06 A3016 RMK A01 T01261057  RH  027%=      5-min Rain = 0
KSB1 241354Z 02003KT 13/M06 A3016 RMK A01 T01261057  RH  027%=      5-min Rain = 0
KSB1 241355Z 01003KT 13/M06 A3016 RMK A01 T01261057  RH  028%=      5-min Rain = 0
KSB1 241356Z 01003KT 13/M06 A3016 RMK A01 T01261055  RH  028%=      5-min Rain = 0
KSB1 241357Z 01003KT 13/M06 A3016 RMK A01 T01271056  RH  028%=      5-min Rain = 0
KSB1 241358Z 01002KT 13/M06 A3017 RMK A01 T01271056  RH  027%=      5-min Rain = 0
KSB1 241359Z 03002KT 13/M06 A3017 RMK A01 T01271057  RH  027%=      5-min Rain = 0
KSB1 241400Z 02003KT 13/M06 A3017 RMK A01 T01271058  RH  027%=      5-min Rain = 0
KSB1 241401Z 02003KT 13/M06 A3017 RMK A01 T01261057  RH  027%=      5-min Rain = 0
KSB1 241402Z 04003KT 13/M06 A3017 RMK A01 T01261057  RH  027%=      5-min Rain = 0
KSB1 241403Z 03003KT 13/M06 A3017 RMK A01 T01271057  RH  027%=      5-min Rain = 0
KSB1 241404Z 03003KT 13/M06 A3017 RMK A01 T01281057  RH  027%=      5-min Rain = 0
KSB1 241405Z 04002KT 13/M06 A3017 RMK A01 T01271057  RH  027%=      5-min Rain = 0
KSB1 241406Z 03002KT 13/M06 A3017 RMK A01 T01281057  RH  027%=      5-min Rain = 0
KSB1 241407Z 03002KT 13/M06 A3017 RMK A01 T01281057  RH  027%=      5-min Rain = 0
KSB1 241408Z 03002KT 13/M06 A3017 RMK A01 T01291057  RH  027%=      5-min Rain = 0
KSB1 241409Z 03002KT 13/M06 A3017 RMK A01 T01291057  RH  027%=      5-min Rain = 0
KSB1 241410Z 04002KT 13/M06 A3017 RMK A01 T01301056  RH  027%=      5-min Rain = 0
KSB1 241411Z 03002KT 13/M06 A3017 RMK A01 T01311056  RH  027%=      5-min Rain = 0
KSB1 241412Z 04002KT 13/M06 A3017 RMK A01 T01321057  RH  027%=      5-min Rain = 0
KSB1 241413Z 05002KT 13/M06 A3017 RMK A01 T01321057  RH  026%=      5-min Rain = 0
KSB1 241414Z 04002KT 13/M06 A3017 RMK A01 T01331057  RH  026%=      5-min Rain = 0
KSB1 241415Z 05002KT 13/M06 A3017 RMK A01 T01331056  RH  026%=      5-min Rain = 0
KSB1 241416Z 04002KT 13/M06 A3017 RMK A01 T01341055  RH  026%=      5-min Rain = 0
KSB1 241417Z 04002KT 14/M06 A3017 RMK A01 T01351055  RH  026%=      5-min Rain = 0
KSB1 241418Z 03002KT 14/M06 A3017 RMK A01 T01361056  RH  026%=      5-min Rain = 0
KSB1 241419Z 07002KT 14/M06 A3017 RMK A01 T01361055  RH  026%=      5-min Rain = 0
KSB1 241420Z 06001KT 14/M05 A3017 RMK A01 T01361054  RH  026%=      5-min Rain = 0
KSB1 241421Z 05002KT 14/M06 A3018 RMK A01 T01361055  RH  026%=      5-min Rain = 0
KSB1 241422Z 05001KT 14/M05 A3018 RMK A01 T01381053  RH  026%=      5-min Rain = 0
KSB1 241423Z 05001KT 14/M06 A3018 RMK A01 T01391055  RH  026%=      5-min Rain = 0
KSB1 241424Z 06002KT 14/M05 A3018 RMK A01 T01391054  RH  026%=      5-min Rain = 0
KSB1 241425Z 07001KT 14/M05 A3018 RMK A01 T01401050  RH  026%=      5-min Rain = 0
KSB1 241426Z 05002KT 14/M05 A3018 RMK A01 T01421049  RH  026%=      5-min Rain = 0
KSB1 241427Z 05001KT 14/M05 A3018 RMK A01 T01441051  RH  026%=      5-min Rain = 0
KSB1 241428Z 07001KT 14/M05 A3018 RMK A01 T01441054  RH  025%=      5-min Rain = 0
KSB1 241429Z 04000KT 15/M05 A3018 RMK A01 T01461054  RH  025%=      5-min Rain = 0
KSB1 241430Z 34001KT 15/M05 A3018 RMK A01 T01471052  RH  025%=      5-min Rain = 0
KSB1 241431Z 31003KT 15/M05 A3018 RMK A01 T01491054  RH  024%=      5-min Rain = 0
KSB1 241432Z 01001KT 15/M05 A3018 RMK A01 T01501052  RH  024%=      5-min Rain = 0
KSB1 241433Z 34003KT 15/M05 A3018 RMK A01 T01511052  RH  024%=      5-min Rain = 0
KSB1 241434Z 21003KT 15/M05 A3018 RMK A01 T01541050  RH  024%=      5-min Rain = 0
KSB1 241435Z 29004KT 15/M05 A3018 RMK A01 T01531053  RH  024%=      5-min Rain = 0
KSB1 241436Z 29004KT 15/M05 A3018 RMK A01 T01521054  RH  024%=      5-min Rain = 0
KSB1 241437Z 31005KT 15/M05 A3018 RMK A01 T01541054  RH  023%=      5-min Rain = 0
KSB1 241438Z 30007KT 16/M06 A3018 RMK A01 T01561055  RH  023%=      5-min Rain = 0
KSB1 241439Z 30007KT 16/M06 A3018 RMK A01 T01581056  RH  022%=      5-min Rain = 0
KSB1 241440Z 32007KT 16/M06 A3018 RMK A01 T01601055  RH  022%=      5-min Rain = 0
KSB1 241441Z 32007KT 16/M06 A3018 RMK A01 T01601057  RH  022%=      5-min Rain = 0
KSB1 241442Z 31007KT 16/M06 A3018 RMK A01 T01611056  RH  022%=      5-min Rain = 0
KSB1 241443Z 32007KT 16/M06 A3018 RMK A01 T01611055  RH  022%=      5-min Rain = 0
KSB1 241444Z 32008KT 16/M06 A3018 RMK A01 T01621056  RH  022%=      5-min Rain = 0
KSB1 241445Z 32007KT 16/M06 A3018 RMK A01 T01621056  RH  022%=      5-min Rain = 0
KSB1 241446Z 31007KT 16/M06 A3018 RMK A01 T01621057  RH  022%=      5-min Rain = 0
KSB1 241447Z 32007KT 16/M06 A3018 RMK A01 T01621055  RH  022%=      5-min Rain = 0
KSB1 241448Z 31008KT 16/M06 A3018 RMK A01 T01631056  RH  022%=      5-min Rain = 0
KSB1 241449Z 32007KT 16/M06 A3018 RMK A01 T01631056  RH  022%=      5-min Rain = 0
KSB1 241450Z 31009KT 16/M06 A3018 RMK A01 T01641057  RH  022%=      5-min Rain = 0
KSB1 241451Z 32007KT 16/M06 A3018 RMK A01 T01641058  RH  021%=      5-min Rain = 0
KSB1 241452Z 31008KT 16/M06 A3018 RMK A01 T01631056  RH  022%=      5-min Rain = 0
KSB1 241453Z 31008KT 16/M06 A3018 RMK A01 T01641057  RH  021%=      5-min Rain = 0
KSB1 241454Z 31007KT 16/M06 A3019 RMK A01 T01641057  RH  021%=      5-min Rain = 0
KSB1 241455Z 30006KT 16/M06 A3019 RMK A01 T01641056  RH  022%=      5-min Rain = 0
KSB1 241456Z 31005KT 17/M06 A3019 RMK A01 T01651055  RH  022%=      5-min Rain = 0
KSB1 241457Z 31008KT 17/M05 A3019 RMK A01 T01661054  RH  022%=      5-min Rain = 0
KSB1 241458Z 31006KT 17/M06 A3019 RMK A01 T01661056  RH  021%=      5-min Rain = 0
KSB1 241459Z 31006KT 17/M05 A3019 RMK A01 T01661054  RH  022%=      5-min Rain = 0
KSB1 241500Z 32006KT 17/M06 A3019 RMK A01 T01661055  RH  022%=      5-min Rain = 0
KSB1 241501Z 32008KT 17/M05 A3019 RMK A01 T01661054  RH  022%=      5-min Rain = 0
KSB1 241502Z 32007KT 17/M06 A3019 RMK A01 T01671055  RH  021%=      5-min Rain = 0
KSB1 241503Z 32009KT 17/M06 A3019 RMK A01 T01671055  RH  021%=      5-min Rain = 0
KSB1 241504Z 33009KT 17/M06 A3019 RMK A01 T01671057  RH  021%=      5-min Rain = 0
KSB1 241505Z 32007KT 17/M06 A3019 RMK A01 T01661057  RH  021%=      5-min Rain = 0
KSB1 241506Z 31008KT 17/M06 A3019 RMK A01 T01651056  RH  021%=      5-min Rain = 0
KSB1 241507Z 32010KT 17/M06 A3019 RMK A01 T01661056  RH  021%=      5-min Rain = 0
KSB1 241508Z 32009KT 17/M06 A3019 RMK A01 T01661056  RH  021%=      5-min Rain = 0
KSB1 241509Z 33011KT 17/M06 A3019 RMK A01 T01661056  RH  021%=      5-min Rain = 0
KSB1 241510Z 32010KT 17/M06 A3019 RMK A01 T01671056  RH  021%=      5-min Rain = 0
KSB1 241511Z 31010KT 17/M06 A3019 RMK A01 T01671056  RH  021%=      5-min Rain = 0
KSB1 241512Z 32011KT 17/M06 A3019 RMK A01 T01671057  RH  021%=      5-min Rain = 0
KSB1 241513Z 32008KT 17/M06 A3019 RMK A01 T01661058  RH  021%=      5-min Rain = 0
KSB1 241514Z 32010KT 17/M06 A3019 RMK A01 T01661056  RH  021%=      5-min Rain = 0
KSB1 241515Z 32009KT 17/M06 A3019 RMK A01 T01671056  RH  021%=      5-min Rain = 0
KSB1 241516Z 32009KT 17/M06 A3019 RMK A01 T01681056  RH  021%=      5-min Rain = 0
KSB1 241517Z 32010KT 17/M06 A3019 RMK A01 T01681056  RH  021%=      5-min Rain = 0
KSB1 241518Z 32009KT 17/M06 A3019 RMK A01 T01691056  RH  021%=      5-min Rain = 0
KSB1 241519Z 32008KT 17/M06 A3019 RMK A01 T01691057  RH  021%=      5-min Rain = 0
KSB1 241520Z 31010KT 17/M06 A3019 RMK A01 T01701056  RH  021%=      5-min Rain = 0
KSB1 241521Z 32008KT 17/M06 A3019 RMK A01 T01701057  RH  021%=      5-min Rain = 0
KSB1 241522Z 32009KT 17/M06 A3019 RMK A01 T01701057  RH  021%=      5-min Rain = 0
KSB1 241523Z 32010KT 17/M06 A3019 RMK A01 T01711055  RH  021%=      5-min Rain = 0
KSB1 241524Z 32007KT 17/M06 A3019 RMK A01 T01721056  RH  021%=      5-min Rain = 0
KSB1 241525Z 31010KT 17/M06 A3019 RMK A01 T01721056  RH  021%=      5-min Rain = 0
KSB1 241526Z 31009KT 17/M06 A3019 RMK A01 T01711057  RH  021%=      5-min Rain = 0
KSB1 241527Z 32009KT 17/M06 A3019 RMK A01 T01691058  RH  021%=      5-min Rain = 0
KSB1 241528Z 31010KT 17/M06 A3019 RMK A01 T01691058  RH  021%=      5-min Rain = 0
KSB1 241529Z 31010KT 17/M06 A3019 RMK A01 T01701058  RH  021%=      5-min Rain = 0
KSB1 241530Z 31009KT 17/M06 A3019 RMK A01 T01701059  RH  020%=      5-min Rain = 0
KSB1 241531Z 32009KT 17/M06 A3019 RMK A01 T01711057  RH  021%=      5-min Rain = 0
KSB1 241532Z 32009KT 17/M06 A3019 RMK A01 T01721057  RH  020%=      5-min Rain = 0
KSB1 241533Z 32009KT 17/M06 A3019 RMK A01 T01731056  RH  020%=      5-min Rain = 0
KSB1 241534Z 32010KT 17/M06 A3019 RMK A01 T01741057  RH  020%=      5-min Rain = 0
KSB1 241535Z 32009KT 18/M06 A3019 RMK A01 T01751058  RH  020%=      5-min Rain = 0
KSB1 241536Z 31009KT 18/M06 A3019 RMK A01 T01761057  RH  020%=      5-min Rain = 0
KSB1 241537Z 32009KT 18/M06 A3019 RMK A01 T01761058  RH  020%=      5-min Rain = 0
KSB1 241538Z 33008KT 18/M06 A3019 RMK A01 T01751057  RH  020%=      5-min Rain = 0
KSB1 241539Z 33008KT 18/M06 A3019 RMK A01 T01751056  RH  020%=      5-min Rain = 0
KSB1 241540Z 32008KT 18/M06 A3019 RMK A01 T01751056  RH  020%=      5-min Rain = 0
KSB1 241541Z 32008KT 18/M06 A3019 RMK A01 T01751056  RH  020%=      5-min Rain = 0
KSB1 241542Z 32008KT 18/M06 A3019 RMK A01 T01761057  RH  020%=      5-min Rain = 0
KSB1 241543Z 33008KT 18/M06 A3019 RMK A01 T01761057  RH  020%=      5-min Rain = 0
KSB1 241544Z 32008KT 18/M06 A3019 RMK A01 T01761057  RH  020%=      5-min Rain = 0
KSB1 241545Z 32009KT 18/M06 A3019 RMK A01 T01771056  RH  020%=      5-min Rain = 0
KSB1 241546Z 32007KT 18/M06 A3019 RMK A01 T01781057  RH  020%=      5-min Rain = 0
KSB1 241547Z 32007KT 18/M05 A3019 RMK A01 T01801054  RH  020%=      5-min Rain = 0
KSB1 241548Z 32008KT 18/M06 A3019 RMK A01 T01811057  RH  019%=      5-min Rain = 0
KSB1 241549Z 32010KT 18/M06 A3019 RMK A01 T01801057  RH  019%=      5-min Rain = 0
KSB1 241550Z 32008KT 18/M06 A3019 RMK A01 T01791057  RH  020%=      5-min Rain = 0
KSB1 241551Z 31011KT 18/M06 A3019 RMK A01 T01791057  RH  019%=      5-min Rain = 0
KSB1 241552Z 29008KT 18/M06 A3019 RMK A01 T01791060  RH  019%=      5-min Rain = 0
KSB1 241553Z 31009KT 18/M06 A3019 RMK A01 T01781058  RH  019%=      5-min Rain = 0
KSB1 241554Z 31010KT 18/M06 A3019 RMK A01 T01791059  RH  019%=      5-min Rain = 0
KSB1 241555Z 32007KT 18/M06 A3019 RMK A01 T01791059  RH  019%=      5-min Rain = 0
KSB1 241556Z 30008KT 18/M06 A3019 RMK A01 T01791059  RH  019%=      5-min Rain = 0
KSB1 241557Z 30008KT 18/M06 A3019 RMK A01 T01801058  RH  019%=      5-min Rain = 0
KSB1 241558Z 28009KT 18/M06 A3019 RMK A01 T01801058  RH  019%=      5-min Rain = 0
KSB1 241559Z 29007KT 18/M06 A3019 RMK A01 T01811059  RH  019%=      5-min Rain = 0
KSB1 241600Z 30007KT 18/M06 A3019 RMK A01 T01811057  RH  019%=      5-min Rain = 0
KSB1 241601Z 29006KT 18/M06 A3019 RMK A01 T01821058  RH  019%=      5-min Rain = 0
KSB1 241602Z 30006KT 18/M06 A3019 RMK A01 T01831057  RH  019%=      5-min Rain = 0
KSB1 241603Z 31006KT 18/M06 A3019 RMK A01 T01841057  RH  019%=      5-min Rain = 0
KSB1 241604Z 30007KT 19/M06 A302 RMK A01 T01851057  RH  019%=      5-min Rain = 0
KSB1 241605Z 29009KT 18/M06 A3019 RMK A01 T01841058  RH  019%=      5-min Rain = 0
KSB1 241606Z 31008G13KT 18/M06 A302 RMK A01 T01841056  RH  019%=      5-min Rain = 0
KSB1 241607Z 32007KT 19/M05 A302 RMK A01 T01861054  RH  019%=      5-min Rain = 0
KSB1 241608Z 30010KT 19/M05 A302 RMK A01 T01881054  RH  019%=      5-min Rain = 0
KSB1 241609Z 30009KT 19/M06 A302 RMK A01 T01881057  RH  018%=      5-min Rain = 0
KSB1 241610Z 30011KT 19/M06 A302 RMK A01 T01871058  RH  018%=      5-min Rain = 0
KSB1 241611Z 31010KT 18/M06 A302 RMK A01 T01841059  RH  019%=      5-min Rain = 0
KSB1 241612Z 31007KT 18/M06 A302 RMK A01 T01821059  RH  019%=      5-min Rain = 0
KSB1 241613Z 30008KT 18/M06 A302 RMK A01 T01831057  RH  019%=      5-min Rain = 0
KSB1 241614Z 30011KT 18/M06 A302 RMK A01 T01841056  RH  019%=      5-min Rain = 0
KSB1 241615Z 30010KT 19/M06 A302 RMK A01 T01851056  RH  019%=      5-min Rain = 0
KSB1 241616Z 31010KT 18/M06 A302 RMK A01 T01841058  RH  019%=      5-min Rain = 0
KSB1 241617Z 32008KT 18/M06 A302 RMK A01 T01831057  RH  019%=      5-min Rain = 0
KSB1 241618Z 29009KT 19/M06 A302 RMK A01 T01851056  RH  019%=      5-min Rain = 0
KSB1 241619Z 28011G16KT 19/M06 A302 RMK A01 T01871056  RH  019%=      5-min Rain = 0
KSB1 241620Z 29010KT 19/M06 A302 RMK A01 T01871056  RH  019%=      5-min Rain = 0
KSB1 241621Z 28011KT 19/M06 A302 RMK A01 T01891055  RH  019%=      5-min Rain = 0
KSB1 241622Z 28012KT 19/M06 A302 RMK A01 T01901056  RH  018%=      5-min Rain = 0
KSB1 241623Z 28009KT 19/M06 A302 RMK A01 T01881056  RH  018%=      5-min Rain = 0
KSB1 241624Z 30009KT 19/M06 A302 RMK A01 T01871056  RH  019%=      5-min Rain = 0
KSB1 241625Z 30011KT 19/M06 A302 RMK A01 T01891055  RH  019%=      5-min Rain = 0
KSB1 241626Z 30011KT 19/M06 A302 RMK A01 T01901055  RH  019%=      5-min Rain = 0
KSB1 241627Z 29010KT 19/M06 A302 RMK A01 T01891055  RH  019%=      5-min Rain = 0
KSB1 241628Z 28009KT 19/M06 A302 RMK A01 T01901055  RH  019%=      5-min Rain = 0
KSB1 241629Z 29010KT 19/M06 A302 RMK A01 T01901055  RH  018%=      5-min Rain = 0
KSB1 241630Z 28010KT 19/M06 A302 RMK A01 T01911055  RH  018%=      5-min Rain = 0
KSB1 241631Z 30007KT 19/M06 A302 RMK A01 T01911055  RH  018%=      5-min Rain = 0
KSB1 241632Z 28013KT 19/M05 A302 RMK A01 T01931052  RH  018%=      5-min Rain = 0
KSB1 241633Z 29011KT 19/M06 A302 RMK A01 T01931055  RH  018%=      5-min Rain = 0
KSB1 241634Z 28011KT 19/M05 A302 RMK A01 T01921054  RH  018%=      5-min Rain = 0
KSB1 241635Z 29013G18KT 19/M05 A302 RMK A01 T01931054  RH  018%=      5-min Rain = 0
KSB1 241636Z 29014KT 19/M06 A302 RMK A01 T01931055  RH  018%=      5-min Rain = 0
KSB1 241637Z 27010KT 19/M06 A302 RMK A01 T01911057  RH  018%=      5-min Rain = 0
KSB1 241638Z 29013KT 19/M05 A302 RMK A01 T01911054  RH  019%=      5-min Rain = 0
KSB1 241639Z 28011KT 19/M06 A302 RMK A01 T01921055  RH  018%=      5-min Rain = 0
KSB1 241640Z 31011KT 19/M05 A302 RMK A01 T01931054  RH  018%=      5-min Rain = 0
KSB1 241641Z 30009KT 19/M06 A302 RMK A01 T01941056  RH  018%=      5-min Rain = 0
KSB1 241642Z 30012G17KT 19/M06 A302 RMK A01 T01941057  RH  018%=      5-min Rain = 0
KSB1 241643Z 29014G19KT 19/M06 A302 RMK A01 T01941056  RH  018%=      5-min Rain = 0
KSB1 241644Z 30012G18KT 19/M06 A302 RMK A01 T01931056  RH  018%=      5-min Rain = 0
KSB1 241645Z 28012KT 20/M05 A302 RMK A01 T01951054  RH  018%=      5-min Rain = 0
KSB1 241646Z 28013KT 20/M06 A302 RMK A01 T01971056  RH  018%=      5-min Rain = 0
KSB1 241647Z 26012KT 20/M06 A302 RMK A01 T01951057  RH  018%=      5-min Rain = 0
KSB1 241648Z 28012G17KT 19/M06 A302 RMK A01 T01941056  RH  018%=      5-min Rain = 0
KSB1 241649Z 29011G16KT 20/M05 A302 RMK A01 T01961053  RH  018%=      5-min Rain = 0
KSB1 241650Z 30013KT 20/M06 A302 RMK A01 T01961056  RH  018%=      5-min Rain = 0
KSB1 241651Z 30013KT 20/M06 A302 RMK A01 T01961056  RH  018%=      5-min Rain = 0
KSB1 241652Z 28014KT 19/M06 A302 RMK A01 T01941056  RH  018%=      5-min Rain = 0
KSB1 241653Z 29010KT 19/M06 A302 RMK A01 T01931055  RH  018%=      5-min Rain = 0
KSB1 241654Z 30009KT 20/M05 A302 RMK A01 T01951052  RH  018%=      5-min Rain = 0
KSB1 241655Z 30012KT 20/M05 A302 RMK A01 T01981051  RH  018%=      5-min Rain = 0
KSB1 241656Z 30013KT 20/M05 A302 RMK A01 T02001053  RH  018%=      5-min Rain = 0
KSB1 241657Z 29013KT 20/M06 A302 RMK A01 T01981055  RH  018%=      5-min Rain = 0
KSB1 241658Z 28016KT 20/M05 A302 RMK A01 T01971054  RH  018%=      5-min Rain = 0
KSB1 241659Z 28013KT 20/M06 A302 RMK A01 T01961055  RH  018%=      5-min Rain = 0
KSB1 241700Z 29013KT 20/M05 A302 RMK A01 T01961054  RH  018%=      5-min Rain = 0
KSB1 241701Z 29016G21KT 20/M05 A302 RMK A01 T01981054  RH  018%=      5-min Rain = 0
KSB1 241702Z 27013KT 20/M06 A302 RMK A01 T01961055  RH  018%=      5-min Rain = 0
KSB1 241703Z 28013KT 20/M05 A302 RMK A01 T01971053  RH  018%=      5-min Rain = 0
KSB1 241704Z 30011KT 20/M05 A302 RMK A01 T01981054  RH  018%=      5-min Rain = 0
KSB1 241705Z 29014KT 20/M05 A302 RMK A01 T01981053  RH  018%=      5-min Rain = 0
KSB1 241706Z 28013KT 20/M05 A3021 RMK A01 T02001051  RH  018%=      5-min Rain = 0
KSB1 241707Z 28012KT 20/M05 A3021 RMK A01 T01991053  RH  018%=      5-min Rain = 0
KSB1 241708Z 28012KT 20/M05 A3021 RMK A01 T01961053  RH  018%=      5-min Rain = 0
KSB1 241709Z 27015KT 20/M05 A302 RMK A01 T01961051  RH  018%=      5-min Rain = 0
KSB1 241710Z 28014KT 20/M05 A3021 RMK A01 T01981050  RH  018%=      5-min Rain = 0
KSB1 241711Z 28013KT 20/M05 A3021 RMK A01 T01991053  RH  018%=      5-min Rain = 0
KSB1 241712Z 28018KT 20/M05 A3021 RMK A01 T01981054  RH  018%=      5-min Rain = 0
KSB1 241713Z 29014KT 20/M06 A3021 RMK A01 T01981055  RH  018%=      5-min Rain = 0
KSB1 241714Z 28016G21KT 20/M05 A3021 RMK A01 T01991053  RH  018%=      5-min Rain = 0
KSB1 241715Z 28017KT 20/M05 A3021 RMK A01 T02001052  RH  018%=      5-min Rain = 0
KSB1 241716Z 27014KT 20/M05 A3021 RMK A01 T01981054  RH  018%=      5-min Rain = 0
KSB1 241717Z 27015KT 20/M05 A3021 RMK A01 T01981052  RH  018%=      5-min Rain = 0
KSB1 241718Z 28011KT 20/M05 A3021 RMK A01 T01971051  RH  018%=      5-min Rain = 0
KSB1 241719Z 30011KT 20/M05 A3021 RMK A01 T01991050  RH  018%=      5-min Rain = 0
KSB1 241720Z 28009KT 20/M05 A3021 RMK A01 T02001053  RH  018%=      5-min Rain = 0
KSB1 241721Z 27009KT 20/M05 A3021 RMK A01 T02001052  RH  018%=      5-min Rain = 0
KSB1 241722Z 32009KT 20/M05 A3021 RMK A01 T02021051  RH  018%=      5-min Rain = 0
KSB1 241723Z 31013KT 20/M05 A3021 RMK A01 T02041050  RH  018%=      5-min Rain = 0
KSB1 241724Z 30012KT 21/M05 A3021 RMK A01 T02051049  RH  018%=      5-min Rain = 0
KSB1 241725Z 29015G20KT 21/M05 A3021 RMK A01 T02051050  RH  018%=      5-min Rain = 0
KSB1 241726Z 28017KT 20/M05 A3021 RMK A01 T02031051  RH  018%=      5-min Rain = 0
KSB1 241727Z 28015KT 20/M05 A3021 RMK A01 T02011053  RH  018%=      5-min Rain = 0
KSB1 241728Z 27014KT 20/M05 A3021 RMK A01 T01981053  RH  018%=      5-min Rain = 0
KSB1 241729Z 26014KT 20/M05 A3021 RMK A01 T01991052  RH  018%=      5-min Rain = 0
KSB1 241730Z 27015KT 20/M05 A3021 RMK A01 T02001050  RH  018%=      5-min Rain = 0
KSB1 241731Z 27015KT 20/M05 A3021 RMK A01 T02021050  RH  018%=      5-min Rain = 0
KSB1 241732Z 29011KT 20/M05 A3021 RMK A01 T02011050  RH  018%=      5-min Rain = 0
KSB1 241733Z 29013KT 20/M05 A3021 RMK A01 T02031052  RH  018%=      5-min Rain = 0
KSB1 241734Z 29012KT 20/M05 A3021 RMK A01 T02041052  RH  017%=      5-min Rain = 0
KSB1 241735Z 29011KT 21/M05 A3021 RMK A01 T02051052  RH  017%=      5-min Rain = 0
KSB1 241736Z 27011KT 21/M05 A3021 RMK A01 T02051053  RH  017%=      5-min Rain = 0
KSB1 241737Z 27013KT 21/M05 A3021 RMK A01 T02061054  RH  017%=      5-min Rain = 0
KSB1 241738Z 28013KT 21/M05 A3021 RMK A01 T02051052  RH  017%=      5-min Rain = 0
KSB1 241739Z 29012G17KT 21/M05 A3021 RMK A01 T02071049  RH  017%=      5-min Rain = 0
KSB1 241740Z 30011KT 21/M05 A3021 RMK A01 T02081049  RH  017%=      5-min Rain = 0
KSB1 241741Z 29010KT 21/M05 A3021 RMK A01 T02091049  RH  017%=      5-min Rain = 0
KSB1 241742Z 28016G21KT 21/M05 A3021 RMK A01 T02091053  RH  017%=      5-min Rain = 0
KSB1 241743Z 28010KT 21/M06 A3021 RMK A01 T02061061  RH  016%=      5-min Rain = 0
KSB1 241744Z 28016KT 20/M06 A3021 RMK A01 T02041057  RH  017%=      5-min Rain = 0
KSB1 241745Z 29013KT 20/M06 A3021 RMK A01 T02011055  RH  017%=      5-min Rain = 0
KSB1 241746Z 28012KT 20/M05 A3021 RMK A01 T02001053  RH  018%=      5-min Rain = 0
KSB1 241747Z 28012KT 20/M05 A3021 RMK A01 T02021050  RH  018%=      5-min Rain = 0
KSB1 241748Z 29011KT 21/M05 A3021 RMK A01 T02051053  RH  017%=      5-min Rain = 0
KSB1 241749Z 29011KT 21/M05 A3021 RMK A01 T02051054  RH  017%=      5-min Rain = 0
KSB1 241750Z 30011KT 20/M06 A3021 RMK A01 T02041055  RH  017%=      5-min Rain = 0
KSB1 241751Z 29018KT 20/M05 A3021 RMK A01 T02041054  RH  017%=      5-min Rain = 0
KSB1 241752Z 29015KT 20/M06 A3021 RMK A01 T02031059  RH  016%=      5-min Rain = 0
KSB1 241753Z 28012KT 20/M06 A3021 RMK A01 T02021057  RH  017%=      5-min Rain = 0
KSB1 241754Z 27011G19KT 20/M06 A3021 RMK A01 T02041055  RH  017%=      5-min Rain = 0
KSB1 241755Z 29014KT 21/M05 A3021 RMK A01 T02071054  RH  017%=      5-min Rain = 0
KSB1 241756Z 27012KT 21/M06 A3021 RMK A01 T02061056  RH  017%=      5-min Rain = 0
KSB1 241757Z 26011KT 21/M06 A3021 RMK A01 T02051058  RH  016%=      5-min Rain = 0
KSB1 241758Z 25011KT 20/M06 A3021 RMK A01 T02041058  RH  017%=      5-min Rain = 0
KSB1 241759Z 25009KT 20/M06 A3021 RMK A01 T02041055  RH  017%=      5-min Rain = 0
KSB1 241800Z 29012KT 21/M05 A3021 RMK A01 T02081054  RH  017%=      5-min Rain = 0
KSB1 241801Z 30012KT 21/M06 A302 RMK A01 T02091056  RH  016%=      5-min Rain = 0
KSB1 241802Z 30015KT 21/M06 A302 RMK A01 T02071057  RH  016%=      5-min Rain = 0
KSB1 241803Z 29011KT 20/M06 A302 RMK A01 T02041058  RH  017%=      5-min Rain = 0
KSB1 241804Z 29012KT 20/M06 A302 RMK A01 T02041056  RH  017%=      5-min Rain = 0
KSB1 241805Z 28014KT 21/M06 A302 RMK A01 T02071056  RH  017%=      5-min Rain = 0
KSB1 241806Z 26012KT 21/M06 A302 RMK A01 T02101055  RH  016%=      5-min Rain = 0
KSB1 241807Z 27013KT 21/M06 A302 RMK A01 T02111057  RH  016%=      5-min Rain = 0
KSB1 241808Z 26012G18KT 21/M06 A302 RMK A01 T02111057  RH  016%=      5-min Rain = 0
KSB1 241809Z 26014KT 21/M06 A302 RMK A01 T02101056  RH  016%=      5-min Rain = 0
KSB1 241810Z 27014KT 21/M06 A302 RMK A01 T02081057  RH  016%=      5-min Rain = 0
KSB1 241811Z 28014KT 21/M06 A302 RMK A01 T02071057  RH  016%=      5-min Rain = 0
KSB1 241812Z 28014KT 21/M06 A302 RMK A01 T02071057  RH  016%=      5-min Rain = 0
KSB1 241813Z 28011KT 21/M06 A302 RMK A01 T02061056  RH  017%=      5-min Rain = 0
KSB1 241814Z 30014KT 21/M06 A302 RMK A01 T02061058  RH  016%=      5-min Rain = 0
KSB1 241815Z 28013KT 21/M06 A302 RMK A01 T02081057  RH  016%=      5-min Rain = 0
KSB1 241816Z 27011KT 21/M06 A302 RMK A01 T02091060  RH  016%=      5-min Rain = 0
KSB1 241817Z 29013KT 21/M06 A302 RMK A01 T02071058  RH  016%=      5-min Rain = 0
KSB1 241818Z 30011KT 21/M06 A302 RMK A01 T02081058  RH  016%=      5-min Rain = 0
KSB1 241819Z 28015KT 21/M06 A302 RMK A01 T02091058  RH  016%=      5-min Rain = 0
KSB1 241820Z 28012KT 21/M06 A302 RMK A01 T02091059  RH  016%=      5-min Rain = 0
KSB1 241821Z 27010KT 21/M06 A302 RMK A01 T02081060  RH  016%=      5-min Rain = 0
KSB1 241822Z 27014KT 21/M06 A302 RMK A01 T02071060  RH  016%=      5-min Rain = 0
KSB1 241823Z 28013KT 21/M06 A302 RMK A01 T02071064  RH  016%=      5-min Rain = 0
KSB1 241824Z 27014G19KT 21/M06 A302 RMK A01 T02081063  RH  016%=      5-min Rain = 0
KSB1 241825Z 25013KT 21/M06 A3019 RMK A01 T02101063  RH  015%=      5-min Rain = 0
KSB1 241826Z 25013KT 21/M06 A3019 RMK A01 T02101062  RH  015%=      5-min Rain = 0
KSB1 241827Z 27013KT 21/M06 A3019 RMK A01 T02131059  RH  016%=      5-min Rain = 0
KSB1 241828Z 26010KT 21/M06 A3019 RMK A01 T02131062  RH  015%=      5-min Rain = 0
KSB1 241829Z 27009KT 21/M06 A3019 RMK A01 T02091063  RH  015%=      5-min Rain = 0
KSB1 241830Z 26014KT 21/M06 A3019 RMK A01 T02071063  RH  016%=      5-min Rain = 0
KSB1 241831Z 27014KT 21/M06 A3019 RMK A01 T02071064  RH  016%=      5-min Rain = 0
KSB1 241832Z 27013KT 21/M06 A3019 RMK A01 T02091064  RH  015%=      5-min Rain = 0
KSB1 241833Z 27013KT 21/M06 A3019 RMK A01 T02101063  RH  015%=      5-min Rain = 0
KSB1 241834Z 26013KT 21/M07 A3019 RMK A01 T02091065  RH  015%=      5-min Rain = 0
KSB1 241835Z 27008G13KT 21/M06 A3019 RMK A01 T02081064  RH  015%=      5-min Rain = 0
KSB1 241836Z 27007KT 21/M06 A3019 RMK A01 T02081063  RH  016%=      5-min Rain = 0
KSB1 241837Z 29010KT 21/M06 A3019 RMK A01 T02091061  RH  016%=      5-min Rain = 0
KSB1 241838Z 30012KT 21/M06 A3018 RMK A01 T02121062  RH  015%=      5-min Rain = 0
KSB1 241839Z 26007KT 21/M07 A3018 RMK A01 T02131066  RH  015%=      5-min Rain = 0
KSB1 241840Z 24010KT 21/M07 A3018 RMK A01 T02111065  RH  015%=      5-min Rain = 0
KSB1 241841Z 27014KT 21/M06 A3019 RMK A01 T02121063  RH  015%=      5-min Rain = 0
KSB1 241842Z 27017KT 22/M07 A3018 RMK A01 T02151065  RH  015%=      5-min Rain = 0
KSB1 241843Z 25015KT 22/M07 A3019 RMK A01 T02161069  RH  014%=      5-min Rain = 0
KSB1 241844Z 25009KT 21/M07 A3018 RMK A01 T02131071  RH  014%=      5-min Rain = 0
KSB1 241845Z 27009KT 21/M07 A3019 RMK A01 T02111066  RH  015%=      5-min Rain = 0
KSB1 241846Z 27013KT 22/M06 A3018 RMK A01 T02161061  RH  015%=      5-min Rain = 0
KSB1 241847Z 27015KT 22/M06 A3019 RMK A01 T02191063  RH  015%=      5-min Rain = 0
KSB1 241848Z 28011KT 22/M07 A3019 RMK A01 T02171069  RH  014%=      5-min Rain = 0
KSB1 241849Z 28013KT 21/M07 A3018 RMK A01 T02131067  RH  015%=      5-min Rain = 0
KSB1 241850Z 27013KT 21/M07 A3018 RMK A01 T02141066  RH  015%=      5-min Rain = 0
KSB1 241851Z 26010KT 21/M07 A3018 RMK A01 T02131068  RH  015%=      5-min Rain = 0
KSB1 241852Z 27010G17KT 21/M07 A3018 RMK A01 T02131066  RH  015%=      5-min Rain = 0
KSB1 241853Z 26014KT 21/M07 A3018 RMK A01 T02131066  RH  015%=      5-min Rain = 0
KSB1 241854Z 25012KT 21/M07 A3018 RMK A01 T02131067  RH  015%=      5-min Rain = 0
KSB1 241855Z 25014KT 21/M07 A3018 RMK A01 T02141067  RH  015%=      5-min Rain = 0
KSB1 241856Z 24012KT 22/M07 A3018 RMK A01 T02151067  RH  014%=      5-min Rain = 0
KSB1 241857Z 25011KT 22/M07 A3018 RMK A01 T02151066  RH  015%=      5-min Rain = 0
KSB1 241858Z 27013KT 22/M06 A3018 RMK A01 T02161063  RH  015%=      5-min Rain = 0
KSB1 241859Z 27014KT 22/M07 A3018 RMK A01 T02171066  RH  014%=      5-min Rain = 0
KSB1 241900Z 28016KT 22/M06 A3018 RMK A01 T02181064  RH  014%=      5-min Rain = 0
KSB1 241901Z 28015KT 22/M07 A3018 RMK A01 T02171065  RH  014%=      5-min Rain = 0
KSB1 241902Z 28013KT 22/M07 A3018 RMK A01 T02161065  RH  015%=      5-min Rain = 0
KSB1 241903Z 28012KT 21/M07 A3018 RMK A01 T02131066  RH  015%=      5-min Rain = 0
KSB1 241904Z 28012KT 21/M07 A3018 RMK A01 T02121066  RH  015%=      5-min Rain = 0
KSB1 241905Z 30011G17KT 21/M07 A3018 RMK A01 T02111065  RH  015%=      5-min Rain = 0
KSB1 241906Z 29012KT 21/M07 A3018 RMK A01 T02141065  RH  015%=      5-min Rain = 0
KSB1 241907Z 31012KT 22/M07 A3018 RMK A01 T02171067  RH  014%=      5-min Rain = 0
KSB1 241908Z 31011KT 22/M07 A3018 RMK A01 T02161067  RH  014%=      5-min Rain = 0
KSB1 241909Z 31009KT 22/M07 A3017 RMK A01 T02161067  RH  014%=      5-min Rain = 0
KSB1 241910Z 28007KT 21/M07 A3018 RMK A01 T02141069  RH  014%=      5-min Rain = 0
KSB1 241911Z 27006KT 21/M07 A3018 RMK A01 T02121069  RH  015%=      5-min Rain = 0
KSB1 241912Z 28008KT 21/M07 A3018 RMK A01 T02111067  RH  015%=      5-min Rain = 0
KSB1 241913Z 28006G11KT 21/M07 A3017 RMK A01 T02131065  RH  015%=      5-min Rain = 0
KSB1 241914Z 28006KT 22/M06 A3017 RMK A01 T02151063  RH  015%=      5-min Rain = 0
KSB1 241915Z 23010KT 22/M06 A3017 RMK A01 T02181063  RH  015%=      5-min Rain = 0
KSB1 241916Z 26007KT 22/M07 A3017 RMK A01 T02181065  RH  014%=      5-min Rain = 0
KSB1 241917Z 28008KT 22/M06 A3017 RMK A01 T02181064  RH  014%=      5-min Rain = 0
KSB1 241918Z 25010KT 22/M06 A3017 RMK A01 T02191064  RH  014%=      5-min Rain = 0
KSB1 241919Z 27010KT 22/M07 A3017 RMK A01 T02201066  RH  014%=      5-min Rain = 0
KSB1 241920Z 27010KT 22/M07 A3017 RMK A01 T02201065  RH  014%=      5-min Rain = 0
KSB1 241921Z 26009KT 22/M06 A3017 RMK A01 T02221063  RH  014%=      5-min Rain = 0
KSB1 241922Z 27011KT 22/M06 A3017 RMK A01 T02211064  RH  014%=      5-min Rain = 0
KSB1 241923Z 28012G19KT 22/M06 A3017 RMK A01 T02211061  RH  015%=      5-min Rain = 0
KSB1 241924Z 30011KT 23/M06 A3017 RMK A01 T02251060  RH  014%=      5-min Rain = 0
KSB1 241925Z 28008KT 22/M06 A3017 RMK A01 T02231061  RH  014%=      5-min Rain = 0
KSB1 241926Z 30009G14KT 22/M06 A3017 RMK A01 T02231059  RH  015%=      5-min Rain = 0
KSB1 241927Z 29014KT 23/M06 A3017 RMK A01 T02251060  RH  014%=      5-min Rain = 0
KSB1 241928Z 30011KT 23/M06 A3017 RMK A01 T02261060  RH  014%=      5-min Rain = 0
KSB1 241929Z 31013KT 23/M06 A3017 RMK A01 T02281061  RH  014%=      5-min Rain = 0
KSB1 241930Z 31010KT 23/M06 A3017 RMK A01 T02271062  RH  014%=      5-min Rain = 0
KSB1 241931Z 32010KT 22/M06 A3017 RMK A01 T02241063  RH  014%=      5-min Rain = 0
KSB1 241932Z 29011G16KT 22/M06 A3017 RMK A01 T02241060  RH  014%=      5-min Rain = 0
KSB1 241933Z 30013KT 23/M06 A3017 RMK A01 T02251059  RH  014%=      5-min Rain = 0
KSB1 241934Z 31007KT 22/M06 A3017 RMK A01 T02241062  RH  014%=      5-min Rain = 0
KSB1 241935Z 25008KT 22/M06 A3017 RMK A01 T02221061  RH  014%=      5-min Rain = 0
KSB1 241936Z 29012KT 22/M06 A3017 RMK A01 T02221060  RH  015%=      5-min Rain = 0
KSB1 241937Z 29013KT 23/M06 A3016 RMK A01 T02261060  RH  014%=      5-min Rain = 0
KSB1 241938Z 29018KT 23/M06 A3017 RMK A01 T02291064  RH  014%=      5-min Rain = 0
KSB1 241939Z 28013KT 23/M07 A3017 RMK A01 T02261067  RH  014%=      5-min Rain = 0
KSB1 241940Z 27014KT 22/M07 A3017 RMK A01 T02221067  RH  014%=      5-min Rain = 0
KSB1 241941Z 26012KT 22/M06 A3017 RMK A01 T02211064  RH  014%=      5-min Rain = 0
KSB1 241942Z 26012KT 22/M06 A3017 RMK A01 T02221062  RH  014%=      5-min Rain = 0
KSB1 241943Z 26010KT 22/M06 A3017 RMK A01 T02231062  RH  014%=      5-min Rain = 0
KSB1 241944Z 28009KT 23/M06 A3016 RMK A01 T02251061  RH  014%=      5-min Rain = 0
KSB1 241945Z 29012KT 23/M06 A3016 RMK A01 T02291059  RH  014%=      5-min Rain = 0
KSB1 241946Z 27012KT 23/M06 A3016 RMK A01 T02301062  RH  014%=      5-min Rain = 0
KSB1 241947Z 29015KT 23/M06 A3016 RMK A01 T02291061  RH  014%=      5-min Rain = 0
KSB1 241948Z 29016G21KT 23/M06 A3016 RMK A01 T02281063  RH  014%=      5-min Rain = 0
KSB1 241949Z 28018KT 23/M06 A3016 RMK A01 T02281064  RH  014%=      5-min Rain = 0
KSB1 241950Z 26016KT 23/M07 A3016 RMK A01 T02281066  RH  013%=      5-min Rain = 0
KSB1 241951Z 27015KT 23/M07 A3016 RMK A01 T02301069  RH  013%=      5-min Rain = 0
KSB1 241952Z 28016KT 23/M06 A3016 RMK A01 T02291062  RH  014%=      5-min Rain = 0
KSB1 241953Z 27017KT 23/M06 A3016 RMK A01 T02291059  RH  014%=      5-min Rain = 0
KSB1 241954Z 27015KT 23/M06 A3016 RMK A01 T02251062  RH  014%=      5-min Rain = 0
KSB1 241955Z 26013KT 22/M06 A3016 RMK A01 T02221061  RH  014%=      5-min Rain = 0
KSB1 241956Z 25010KT 22/M06 A3016 RMK A01 T02181064  RH  014%=      5-min Rain = 0
KSB1 241957Z 26007KT 22/M06 A3016 RMK A01 T02171063  RH  015%=      5-min Rain = 0
KSB1 241958Z 26010KT 22/M06 A3016 RMK A01 T02171061  RH  015%=      5-min Rain = 0
KSB1 241959Z 27009KT 22/M06 A3016 RMK A01 T02191058  RH  015%=      5-min Rain = 0
KSB1 242000Z 29013KT 22/M06 A3016 RMK A01 T02241055  RH  015%=      5-min Rain = 0
KSB1 242001Z 30010KT 23/M06 A3016 RMK A01 T02251058  RH  015%=      5-min Rain = 0
KSB1 242002Z 30009KT 22/M06 A3016 RMK A01 T02241059  RH  015%=      5-min Rain = 0
KSB1 242003Z 31008KT 22/M06 A3016 RMK A01 T02211061  RH  015%=      5-min Rain = 0
KSB1 242004Z 30006KT 22/M06 A3016 RMK A01 T02181060  RH  015%=      5-min Rain = 0
KSB1 242005Z 31004KT 22/M06 A3016 RMK A01 T02171061  RH  015%=      5-min Rain = 0
KSB1 242006Z 29006KT 22/M06 A3016 RMK A01 T02181061  RH  015%=      5-min Rain = 0
KSB1 242007Z 29008KT 22/M06 A3016 RMK A01 T02181060  RH  015%=      5-min Rain = 0
KSB1 242008Z 29013KT 22/M06 A3016 RMK A01 T02201063  RH  014%=      5-min Rain = 0
KSB1 242009Z 27012KT 22/M06 A3016 RMK A01 T02241062  RH  014%=      5-min Rain = 0
KSB1 242010Z 26012KT 23/M07 A3015 RMK A01 T02261065  RH  014%=      5-min Rain = 0
KSB1 242011Z 25009KT 22/M07 A3015 RMK A01 T02231066  RH  014%=      5-min Rain = 0
KSB1 242012Z 22006KT 22/M07 A3015 RMK A01 T02221065  RH  014%=      5-min Rain = 0
KSB1 242013Z 25008KT 22/M07 A3015 RMK A01 T02231066  RH  014%=      5-min Rain = 0
KSB1 242014Z 25009KT 22/M07 A3015 RMK A01 T02241068  RH  014%=      5-min Rain = 0
KSB1 242015Z 24008KT 23/M07 A3015 RMK A01 T02251066  RH  014%=      5-min Rain = 0
KSB1 242016Z 24008KT 22/M07 A3015 RMK A01 T02241068  RH  014%=      5-min Rain = 0
KSB1 242017Z 28011KT 22/M07 A3015 RMK A01 T02231069  RH  014%=      5-min Rain = 0
KSB1 242018Z 27011KT 23/M07 A3015 RMK A01 T02271072  RH  013%=      5-min Rain = 0
KSB1 242019Z 27012KT 23/M07 A3015 RMK A01 T02311071  RH  013%=      5-min Rain = 0
KSB1 242020Z 27014KT 23/M08 A3015 RMK A01 T02301075  RH  012%=      5-min Rain = 0
KSB1 242021Z 27016KT 23/M07 A3015 RMK A01 T02301073  RH  013%=      5-min Rain = 0
KSB1 242022Z 27015KT 23/M07 A3015 RMK A01 T02331074  RH  012%=      5-min Rain = 0
KSB1 242023Z 27015KT 23/M08 A3015 RMK A01 T02311075  RH  012%=      5-min Rain = 0
KSB1 242024Z 29012KT 23/M08 A3015 RMK A01 T02291076  RH  012%=      5-min Rain = 0
KSB1 242025Z 26010KT 23/M08 A3015 RMK A01 T02271076  RH  012%=      5-min Rain = 0
KSB1 242026Z 27008KT 23/M08 A3015 RMK A01 T02271077  RH  012%=      5-min Rain = 0
KSB1 242027Z 31013G20KT 23/M07 A3014 RMK A01 T02291073  RH  013%=      5-min Rain = 0
KSB1 242028Z 30015KT 23/M07 A3015 RMK A01 T02301071  RH  013%=      5-min Rain = 0
KSB1 242029Z 30012G17KT 23/M07 A3015 RMK A01 T02311069  RH  013%=      5-min Rain = 0
KSB1 242030Z 31013KT 23/M07 A3015 RMK A01 T02311070  RH  013%=      5-min Rain = 0
KSB1 242031Z 32013KT 23/M07 A3014 RMK A01 T02301070  RH  013%=      5-min Rain = 0
KSB1 242032Z 32012KT 23/M07 A3015 RMK A01 T02301070  RH  013%=      5-min Rain = 0
KSB1 242033Z 28011KT 23/M07 A3015 RMK A01 T02301071  RH  013%=      5-min Rain = 0
KSB1 242034Z 28010KT 23/M07 A3015 RMK A01 T02311070  RH  013%=      5-min Rain = 0
KSB1 242035Z 27007KT 23/M07 A3015 RMK A01 T02331070  RH  013%=      5-min Rain = 0
KSB1 242036Z 27009KT 23/M07 A3014 RMK A01 T02331071  RH  013%=      5-min Rain = 0
KSB1 242037Z 27007KT 23/M07 A3014 RMK A01 T02311073  RH  013%=      5-min Rain = 0
KSB1 242038Z 25003KT 23/M08 A3014 RMK A01 T02261080  RH  012%=      5-min Rain = 0
KSB1 242039Z 28008G13KT 22/M08 A3014 RMK A01 T02231077  RH  013%=      5-min Rain = 0
KSB1 242040Z 28016KT 23/M08 A3014 RMK A01 T02291077  RH  012%=      5-min Rain = 0
KSB1 242041Z 27018KT 23/M08 A3014 RMK A01 T02311080  RH  012%=      5-min Rain = 0
KSB1 242042Z 27014KT 23/M08 A3014 RMK A01 T02321080  RH  012%=      5-min Rain = 0
KSB1 242043Z 27013KT 23/M08 A3014 RMK A01 T02301079  RH  012%=      5-min Rain = 0
KSB1 242044Z 27019KT 23/M08 A3014 RMK A01 T02331077  RH  012%=      5-min Rain = 0
KSB1 242045Z 26015KT 23/M08 A3014 RMK A01 T02321077  RH  012%=      5-min Rain = 0
KSB1 242046Z 25014KT 23/M08 A3014 RMK A01 T02311077  RH  012%=      5-min Rain = 0
KSB1 242047Z 25015KT 23/M08 A3014 RMK A01 T02291078  RH  012%=      5-min Rain = 0
KSB1 242048Z 24009G15KT 23/M08 A3014 RMK A01 T02281078  RH  012%=      5-min Rain = 0
KSB1 242049Z 24008KT 23/M08 A3014 RMK A01 T02251078  RH  013%=      5-min Rain = 0
KSB1 242050Z 25010KT 23/M07 A3014 RMK A01 T02271074  RH  013%=      5-min Rain = 0
KSB1 242051Z 27012KT 23/M07 A3014 RMK A01 T02281074  RH  013%=      5-min Rain = 0
KSB1 242052Z 27013KT 23/M07 A3014 RMK A01 T02321069  RH  013%=      5-min Rain = 0
KSB1 242053Z 27015G20KT 23/M07 A3014 RMK A01 T02321073  RH  012%=      5-min Rain = 0
KSB1 242054Z 30012KT 23/M08 A3014 RMK A01 T02271076  RH  012%=      5-min Rain = 0
KSB1 242055Z 29011KT 23/M07 A3014 RMK A01 T02251074  RH  013%=      5-min Rain = 0
KSB1 242056Z 27010KT 23/M08 A3014 RMK A01 T02311076  RH  012%=      5-min Rain = 0
KSB1 242057Z 28009G14KT 23/M08 A3014 RMK A01 T02341080  RH  012%=      5-min Rain = 0
KSB1 242058Z 27015KT 23/M08 A3014 RMK A01 T02341078  RH  012%=      5-min Rain = 0
KSB1 242059Z 30013KT 23/M08 A3014 RMK A01 T02331076  RH  012%=      5-min Rain = 0
KSB1 242100Z 30014G19KT 23/M08 A3014 RMK A01 T02341080  RH  012%=      5-min Rain = 0
KSB1 242101Z 29012KT 23/M08 A3014 RMK A01 T02341080  RH  012%=      5-min Rain = 0
KSB1 242102Z 28013KT 23/M08 A3014 RMK A01 T02341079  RH  012%=      5-min Rain = 0
KSB1 242103Z 29015KT 24/M08 A3014 RMK A01 T02351080  RH  012%=      5-min Rain = 0
KSB1 242104Z 28013KT 23/M08 A3014 RMK A01 T02341082  RH  011%=      5-min Rain = 0
KSB1 242105Z 26014KT 23/M08 A3014 RMK A01 T02331079  RH  012%=      5-min Rain = 0
KSB1 242106Z 26014G19KT 24/M08 A3014 RMK A01 T02351082  RH  011%=      5-min Rain = 0
KSB1 242107Z 26009KT 23/M08 A3014 RMK A01 T02311084  RH  012%=      5-min Rain = 0
KSB1 242108Z 28012KT 23/M08 A3014 RMK A01 T02291081  RH  012%=      5-min Rain = 0
KSB1 242109Z 27013KT 23/M08 A3014 RMK A01 T02301077  RH  012%=      5-min Rain = 0
KSB1 242110Z 26011KT 23/M08 A3014 RMK A01 T02311078  RH  012%=      5-min Rain = 0
KSB1 242111Z 25009KT 23/M08 A3014 RMK A01 T02291077  RH  012%=      5-min Rain = 0
KSB1 242112Z 23010KT 23/M08 A3014 RMK A01 T02301077  RH  012%=      5-min Rain = 0
KSB1 242113Z 24011KT 23/M08 A3014 RMK A01 T02301078  RH  012%=      5-min Rain = 0
KSB1 242114Z 29009KT 23/M08 A3014 RMK A01 T02301076  RH  012%=      5-min Rain = 0
KSB1 242115Z 28012KT 23/M07 A3014 RMK A01 T02331072  RH  012%=      5-min Rain = 0
KSB1 242116Z 30012KT 24/M07 A3014 RMK A01 T02361071  RH  012%=      5-min Rain = 0
KSB1 242117Z 30011G16KT 24/M07 A3014 RMK A01 T02371067  RH  013%=      5-min Rain = 0
KSB1 242118Z 26012G17KT 24/M07 A3014 RMK A01 T02371071  RH  012%=      5-min Rain = 0
KSB1 242119Z 28009G15KT 24/M07 A3013 RMK A01 T02361074  RH  012%=      5-min Rain = 0
KSB1 242120Z 31014KT 24/M07 A3013 RMK A01 T02361070  RH  012%=      5-min Rain = 0
KSB1 242121Z 32015KT 24/M07 A3013 RMK A01 T02351069  RH  013%=      5-min Rain = 0
KSB1 242122Z 31015KT 24/M07 A3013 RMK A01 T02351068  RH  013%=      5-min Rain = 0
KSB1 242123Z 32014KT 24/M07 A3013 RMK A01 T02361068  RH  013%=      5-min Rain = 0
KSB1 242124Z 30010KT 24/M07 A3014 RMK A01 T02361070  RH  012%=      5-min Rain = 0
KSB1 242125Z 32010KT 23/M07 A3013 RMK A01 T02321072  RH  013%=      5-min Rain = 0
KSB1 242126Z 31009KT 23/M07 A3014 RMK A01 T02291071  RH  013%=      5-min Rain = 0
KSB1 242127Z 30009KT 23/M07 A3013 RMK A01 T02281070  RH  013%=      5-min Rain = 0
KSB1 242128Z 29011KT 23/M07 A3014 RMK A01 T02301074  RH  012%=      5-min Rain = 0
KSB1 242129Z 29013KT 23/M08 A3013 RMK A01 T02311081  RH  012%=      5-min Rain = 0
KSB1 242130Z 28013KT 24/M08 A3014 RMK A01 T02351080  RH  012%=      5-min Rain = 0
KSB1 242131Z 27012KT 24/M08 A3014 RMK A01 T02371080  RH  011%=      5-min Rain = 0
KSB1 242132Z 28010KT 24/M08 A3013 RMK A01 T02351079  RH  012%=      5-min Rain = 0
KSB1 242133Z 27014KT 24/M07 A3014 RMK A01 T02351074  RH  012%=      5-min Rain = 0
KSB1 242134Z 28011KT 23/M07 A3014 RMK A01 T02341073  RH  012%=      5-min Rain = 0
KSB1 242135Z 28015KT 24/M07 A3014 RMK A01 T02361072  RH  012%=      5-min Rain = 0
KSB1 242136Z 28012KT 24/M08 A3014 RMK A01 T02361075  RH  012%=      5-min Rain = 0
KSB1 242137Z 27015G21KT 24/M08 A3013 RMK A01 T02351075  RH  012%=      5-min Rain = 0
KSB1 242138Z 27016KT 24/M08 A3014 RMK A01 T02351078  RH  012%=      5-min Rain = 0
KSB1 242139Z 27015KT 23/M08 A3014 RMK A01 T02341080  RH  012%=      5-min Rain = 0
KSB1 242140Z 26010KT 23/M08 A3013 RMK A01 T02321082  RH  012%=      5-min Rain = 0
KSB1 242141Z 27013KT 23/M08 A3013 RMK A01 T02331082  RH  012%=      5-min Rain = 0
KSB1 242142Z 27016KT 24/M09 A3014 RMK A01 T02371088  RH  011%=      5-min Rain = 0
KSB1 242143Z 28012KT 24/M09 A3014 RMK A01 T02361093  RH  010%=      5-min Rain = 0
KSB1 242144Z 28013KT 23/M09 A3014 RMK A01 T02321094  RH  011%=      5-min Rain = 0
KSB1 242145Z 28013G21KT 23/M09 A3013 RMK A01 T02331087  RH  011%=      5-min Rain = 0
KSB1 242146Z 27016KT 24/M08 A3014 RMK A01 T02381081  RH  011%=      5-min Rain = 0
KSB1 242147Z 27017KT 24/M08 A3014 RMK A01 T02381084  RH  011%=      5-min Rain = 0
KSB1 242148Z 28014KT 23/M08 A3014 RMK A01 T02341083  RH  011%=      5-min Rain = 0
KSB1 242149Z 27013KT 23/M08 A3014 RMK A01 T02331082  RH  012%=      5-min Rain = 0
KSB1 242150Z 27011G16KT 23/M08 A3014 RMK A01 T02321081  RH  012%=      5-min Rain = 0
KSB1 242151Z 27008KT 23/M08 A3014 RMK A01 T02321080  RH  012%=      5-min Rain = 0
KSB1 242152Z 28008KT 23/M08 A3013 RMK A01 T02321079  RH  012%=      5-min Rain = 0
KSB1 242153Z 28008KT 23/M08 A3013 RMK A01 T02331079  RH  012%=      5-min Rain = 0
KSB1 242154Z 26013KT 24/M08 A3013 RMK A01 T02351078  RH  012%=      5-min Rain = 0
KSB1 242155Z 26010KT 24/M08 A3013 RMK A01 T02351081  RH  011%=      5-min Rain = 0
KSB1 242156Z 28012G18KT 24/M08 A3013 RMK A01 T02371080  RH  011%=      5-min Rain = 0
KSB1 242157Z 28013KT 24/M09 A3013 RMK A01 T02391087  RH  011%=      5-min Rain = 0
KSB1 242158Z 28014G19KT 24/M09 A3013 RMK A01 T02371090  RH  011%=      5-min Rain = 0
KSB1 242159Z 27012KT 24/M09 A3013 RMK A01 T02351092  RH  011%=      5-min Rain = 0
KSB1 242200Z 27016G23KT 23/M09 A3013 RMK A01 T02341092  RH  011%=      5-min Rain = 0
KSB1 242201Z 27019KT 24/M10 A3013 RMK A01 T02361097  RH  010%=      5-min Rain = 0
KSB1 242202Z 27019KT 24/M10 A3014 RMK A01 T02351102  RH  010%=      5-min Rain = 0
KSB1 242203Z 28013G18KT 23/M10 A3014 RMK A01 T02331103  RH  010%=      5-min Rain = 0
KSB1 242204Z 27012KT 23/M10 A3014 RMK A01 T02311101  RH  010%=      5-min Rain = 0
KSB1 242205Z 27009KT 23/M10 A3014 RMK A01 T02321098  RH  010%=      5-min Rain = 0
KSB1 242206Z 31007G13KT 23/M10 A3014 RMK A01 T02341096  RH  010%=      5-min Rain = 0
KSB1 242207Z 31010KT 24/M10 A3013 RMK A01 T02371096  RH  010%=      5-min Rain = 0
KSB1 242208Z 29012KT 24/M10 A3013 RMK A01 T02371098  RH  010%=      5-min Rain = 0
KSB1 242209Z 27016KT 24/M10 A3014 RMK A01 T02371099  RH  010%=      5-min Rain = 0
KSB1 242210Z 26012G17KT 24/M10 A3014 RMK A01 T02351101  RH  010%=      5-min Rain = 0
KSB1 242211Z 27010KT 23/M10 A3013 RMK A01 T02341101  RH  010%=      5-min Rain = 0
KSB1 242212Z 28013KT 23/M10 A3013 RMK A01 T02331100  RH  010%=      5-min Rain = 0
KSB1 242213Z 29014KT 23/M10 A3013 RMK A01 T02311099  RH  010%=      5-min Rain = 0
KSB1 242214Z 30015KT 23/M10 A3013 RMK A01 T02311096  RH  010%=      5-min Rain = 0
KSB1 242215Z 29017KT 23/M10 A3013 RMK A01 T02321095  RH  010%=      5-min Rain = 0
KSB1 242216Z 30015KT 23/M10 A3014 RMK A01 T02321095  RH  010%=      5-min Rain = 0
KSB1 242217Z 30009KT 23/M10 A3014 RMK A01 T02301098  RH  010%=      5-min Rain = 0
KSB1 242218Z 30009KT 23/M10 A3013 RMK A01 T02281097  RH  011%=      5-min Rain = 0
KSB1 242219Z 29008KT 23/M10 A3013 RMK A01 T02281097  RH  011%=      5-min Rain = 0
KSB1 242220Z 30008KT 23/M09 A3013 RMK A01 T02311093  RH  011%=      5-min Rain = 0
KSB1 242221Z 31005KT 23/M09 A3013 RMK A01 T02331092  RH  011%=      5-min Rain = 0
KSB1 242222Z 30002KT 23/M09 A3013 RMK A01 T02311094  RH  011%=      5-min Rain = 0
KSB1 242223Z 30004KT 23/M09 A3013 RMK A01 T02301092  RH  011%=      5-min Rain = 0
KSB1 242224Z 26010KT 23/M09 A3013 RMK A01 T02311093  RH  011%=      5-min Rain = 0
KSB1 242225Z 29008KT 23/M10 A3013 RMK A01 T02321097  RH  010%=      5-min Rain = 0
KSB1 242226Z 31011KT 23/M10 A3013 RMK A01 T02341096  RH  010%=      5-min Rain = 0
KSB1 242227Z 30011KT 24/M09 A3013 RMK A01 T02381094  RH  010%=      5-min Rain = 0
KSB1 242228Z 30015KT 24/M09 A3013 RMK A01 T02401094  RH  010%=      5-min Rain = 0
KSB1 242229Z 28014KT 24/M09 A3013 RMK A01 T02391094  RH  010%=      5-min Rain = 0
KSB1 242230Z 28013KT 24/M10 A3013 RMK A01 T02351096  RH  010%=      5-min Rain = 0
KSB1 242231Z 30011KT 23/M10 A3013 RMK A01 T02321098  RH  010%=      5-min Rain = 0
KSB1 242232Z 31016KT 23/M10 A3013 RMK A01 T02311098  RH  010%=      5-min Rain = 0
KSB1 242233Z 32014G19KT 23/M10 A3013 RMK A01 T02311099  RH  010%=      5-min Rain = 0
KSB1 242234Z 32014G19KT 23/M10 A3013 RMK A01 T02331100  RH  010%=      5-min Rain = 0
KSB1 242235Z 32013KT 23/M10 A3013 RMK A01 T02321100  RH  010%=      5-min Rain = 0
KSB1 242236Z 31012KT 23/M10 A3013 RMK A01 T02331099  RH  010%=      5-min Rain = 0
KSB1 242237Z 30013KT 24/M10 A3013 RMK A01 T02361097  RH  010%=      5-min Rain = 0
KSB1 242238Z 30013KT 24/M10 A3013 RMK A01 T02371096  RH  010%=      5-min Rain = 0
KSB1 242239Z 29015KT 24/M10 A3013 RMK A01 T02391095  RH  010%=      5-min Rain = 0
KSB1 242240Z 28014KT 24/M10 A3014 RMK A01 T02371099  RH  010%=      5-min Rain = 0
KSB1 242241Z 28017KT 24/M10 A3014 RMK A01 T02361097  RH  010%=      5-min Rain = 0
KSB1 242242Z 27013G19KT 23/M10 A3013 RMK A01 T02341095  RH  010%=      5-min Rain = 0
KSB1 242243Z 30012KT 23/M09 A3013 RMK A01 T02331093  RH  011%=      5-min Rain = 0
KSB1 242244Z 32011KT 23/M10 A3014 RMK A01 T02311095  RH  011%=      5-min Rain = 0
KSB1 242245Z 31014KT 23/M10 A3013 RMK A01 T02301095  RH  011%=      5-min Rain = 0
KSB1 242246Z 29012KT 23/M09 A3014 RMK A01 T02301093  RH  011%=      5-min Rain = 0
KSB1 242247Z 28011KT 23/M09 A3014 RMK A01 T02311092  RH  011%=      5-min Rain = 0
KSB1 242248Z 28010KT 23/M09 A3013 RMK A01 T02311094  RH  011%=      5-min Rain = 0
KSB1 242249Z 27012KT 23/M09 A3014 RMK A01 T02311093  RH  011%=      5-min Rain = 0
KSB1 242250Z 26012KT 23/M10 A3013 RMK A01 T02331098  RH  010%=      5-min Rain = 0
KSB1 242251Z 28011KT 23/M10 A3014 RMK A01 T02341098  RH  010%=      5-min Rain = 0
KSB1 242252Z 28015G21KT 24/M10 A3014 RMK A01 T02351095  RH  010%=      5-min Rain = 0
KSB1 242253Z 28016KT 24/M09 A3014 RMK A01 T02351091  RH  011%=      5-min Rain = 0
KSB1 242254Z 29013KT 23/M09 A3014 RMK A01 T02311091  RH  011%=      5-min Rain = 0
KSB1 242255Z 29012KT 23/M09 A3014 RMK A01 T02281091  RH  011%=      5-min Rain = 0
KSB1 242256Z 32010G15KT 23/M09 A3014 RMK A01 T02271088  RH  011%=      5-min Rain = 0
KSB1 242257Z 32013KT 23/M09 A3014 RMK A01 T02281087  RH  011%=      5-min Rain = 0
KSB1 242258Z 30011KT 23/M09 A3014 RMK A01 T02291087  RH  011%=      5-min Rain = 0
KSB1 242259Z 29011KT 23/M09 A3014 RMK A01 T02291087  RH  011%=      5-min Rain = 0
KSB1 242300Z 28009KT 23/M09 A3014 RMK A01 T02291088  RH  011%=      5-min Rain = 0
KSB1 242301Z 29008KT 23/M09 A3014 RMK A01 T02281087  RH  011%=      5-min Rain = 0
KSB1 242302Z 32011KT 23/M09 A3014 RMK A01 T02301086  RH  011%=      5-min Rain = 0
KSB1 242303Z 30015KT 23/M09 A3014 RMK A01 T02301089  RH  011%=      5-min Rain = 0
KSB1 242304Z 29013KT 23/M10 A3014 RMK A01 T02291095  RH  011%=      5-min Rain = 0
KSB1 242305Z 28016KT 23/M10 A3014 RMK A01 T02261096  RH  011%=      5-min Rain = 0
KSB1 242306Z 29013G18KT 22/M10 A3014 RMK A01 T02241098  RH  011%=      5-min Rain = 0
KSB1 242307Z 29016G21KT 23/M10 A3014 RMK A01 T02251097  RH  011%=      5-min Rain = 0
KSB1 242308Z 30015KT 23/M10 A3014 RMK A01 T02251097  RH  011%=      5-min Rain = 0
KSB1 242309Z 30016G22KT 23/M10 A3014 RMK A01 T02251097  RH  011%=      5-min Rain = 0
KSB1 242310Z 29015KT 23/M10 A3014 RMK A01 T02251096  RH  011%=      5-min Rain = 0
KSB1 242311Z 29013KT 23/M09 A3014 RMK A01 T02271092  RH  011%=      5-min Rain = 0
KSB1 242312Z 28016KT 23/M09 A3014 RMK A01 T02301090  RH  011%=      5-min Rain = 0
KSB1 242313Z 30014KT 23/M09 A3014 RMK A01 T02301091  RH  011%=      5-min Rain = 0
KSB1 242314Z 29010KT 23/M09 A3014 RMK A01 T02271093  RH  011%=      5-min Rain = 0
KSB1 242315Z 29014KT 23/M09 A3014 RMK A01 T02251093  RH  011%=      5-min Rain = 0
KSB1 242316Z 29010KT 22/M09 A3014 RMK A01 T02231093  RH  011%=      5-min Rain = 0
KSB1 242317Z 29006KT 22/M09 A3014 RMK A01 T02221093  RH  011%=      5-min Rain = 0
KSB1 242318Z 30010G16KT 22/M09 A3014 RMK A01 T02231092  RH  011%=      5-min Rain = 0
KSB1 242319Z 32010KT 22/M09 A3014 RMK A01 T02231092  RH  011%=      5-min Rain = 0
KSB1 242320Z 30010KT 22/M09 A3014 RMK A01 T02241092  RH  011%=      5-min Rain = 0
KSB1 242321Z 28009KT 22/M09 A3014 RMK A01 T02241091  RH  011%=      5-min Rain = 0
KSB1 242322Z 28008KT 23/M09 A3014 RMK A01 T02251090  RH  011%=      5-min Rain = 0
KSB1 242323Z 30006KT 23/M09 A3014 RMK A01 T02271089  RH  011%=      5-min Rain = 0
KSB1 242324Z 31007KT 23/M09 A3014 RMK A01 T02291088  RH  011%=      5-min Rain = 0
KSB1 242325Z 30007KT 23/M09 A3014 RMK A01 T02291088  RH  011%=      5-min Rain = 0
KSB1 242326Z 28007KT 23/M09 A3014 RMK A01 T02281088  RH  011%=      5-min Rain = 0
KSB1 242327Z 29005KT 23/M09 A3014 RMK A01 T02271087  RH  012%=      5-min Rain = 0
KSB1 242328Z 31004KT 23/M09 A3014 RMK A01 T02251088  RH  012%=      5-min Rain = 0
KSB1 242329Z 27005KT 23/M09 A3014 RMK A01 T02261088  RH  012%=      5-min Rain = 0
KSB1 242330Z 26007KT 23/M09 A3014 RMK A01 T02261090  RH  011%=      5-min Rain = 0
KSB1 242331Z 27008G13KT 23/M09 A3014 RMK A01 T02271088  RH  011%=      5-min Rain = 0
KSB1 242332Z 28015KT 23/M09 A3014 RMK A01 T02281086  RH  012%=      5-min Rain = 0
KSB1 242333Z 28014KT 23/M08 A3014 RMK A01 T02291084  RH  012%=      5-min Rain = 0
KSB1 242334Z 27014KT 23/M08 A3014 RMK A01 T02291084  RH  012%=      5-min Rain = 0
KSB1 242335Z 27014KT 23/M08 A3014 RMK A01 T02271084  RH  012%=      5-min Rain = 0
KSB1 242336Z 27014KT 23/M08 A3014 RMK A01 T02271083  RH  012%=      5-min Rain = 0
KSB1 242337Z 27012KT 23/M08 A3014 RMK A01 T02261084  RH  012%=      5-min Rain = 0
KSB1 242338Z 27011KT 23/M08 A3015 RMK A01 T02251082  RH  012%=      5-min Rain = 0
KSB1 242339Z 28011KT 23/M08 A3014 RMK A01 T02251082  RH  012%=      5-min Rain = 0
KSB1 242340Z 29008KT 23/M08 A3014 RMK A01 T02261081  RH  012%=      5-min Rain = 0
KSB1 242341Z 31009G18KT 23/M08 A3014 RMK A01 T02281080  RH  012%=      5-min Rain = 0
KSB1 242342Z 31016KT 23/M08 A3014 RMK A01 T02291080  RH  012%=      5-min Rain = 0
KSB1 242343Z 31015KT 23/M08 A3014 RMK A01 T02271081  RH  012%=      5-min Rain = 0
KSB1 242344Z 31012KT 23/M08 A3014 RMK A01 T02251082  RH  012%=      5-min Rain = 0
KSB1 242345Z 31010KT 22/M08 A3014 RMK A01 T02241081  RH  012%=      5-min Rain = 0
KSB1 242346Z 32012KT 23/M08 A3014 RMK A01 T02251080  RH  012%=      5-min Rain = 0
KSB1 242347Z 31013KT 22/M08 A3014 RMK A01 T02241081  RH  012%=      5-min Rain = 0
KSB1 242348Z 30013KT 22/M08 A3015 RMK A01 T02241081  RH  012%=      5-min Rain = 0
KSB1 242349Z 31011KT 22/M08 A3015 RMK A01 T02231082  RH  012%=      5-min Rain = 0
KSB1 242350Z 31014KT 22/M08 A3014 RMK A01 T02231082  RH  012%=      5-min Rain = 0
KSB1 242351Z 31015KT 22/M08 A3014 RMK A01 T02231082  RH  012%=      5-min Rain = 0
KSB1 242352Z 30013KT 22/M08 A3015 RMK A01 T02231083  RH  012%=      5-min Rain = 0
KSB1 242353Z 31014KT 22/M08 A3015 RMK A01 T02231084  RH  012%=      5-min Rain = 0
KSB1 242354Z 30013KT 22/M08 A3015 RMK A01 T02221084  RH  012%=      5-min Rain = 0
KSB1 242355Z 29011KT 22/M08 A3015 RMK A01 T02221084  RH  012%=      5-min Rain = 0
KSB1 242356Z 31008KT 22/M08 A3015 RMK A01 T02231083  RH  012%=      5-min Rain = 0
KSB1 242357Z 30009KT 22/M08 A3015 RMK A01 T02231083  RH  012%=      5-min Rain = 0
KSB1 242358Z 30007KT 22/M08 A3015 RMK A01 T02221082  RH  012%=      5-min Rain = 0
KSB1 242359Z 32008KT 22/M08 A3015 RMK A01 T02221081  RH  012%=      5-min Rain = 0
KSB1 250000Z 32009KT 22/M08 A3015 RMK A01 T02211081  RH  013%=      5-min Rain = 0
KSB1 250001Z 31008KT 22/M08 A3015 RMK A01 T02211080  RH  013%=      5-min Rain = 0
KSB1 250002Z 29009KT 22/M08 A3015 RMK A01 T02211080  RH  013%=      5-min Rain = 0
KSB1 250003Z 31006KT 22/M08 A3015 RMK A01 T02221079  RH  013%=      5-min Rain = 0
KSB1 250004Z 31007KT 22/M08 A3015 RMK A01 T02231077  RH  013%=      5-min Rain = 0
KSB1 250005Z 32010KT 22/M08 A3015 RMK A01 T02241077  RH  013%=      5-min Rain = 0
KSB1 250006Z 31009KT 22/M08 A3015 RMK A01 T02241078  RH  013%=      5-min Rain = 0
KSB1 250007Z 30008KT 22/M08 A3015 RMK A01 T02231079  RH  013%=      5-min Rain = 0
KSB1 250008Z 30008KT 22/M08 A3015 RMK A01 T02231078  RH  013%=      5-min Rain = 0
KSB1 250009Z 31010KT 22/M08 A3015 RMK A01 T02231077  RH  013%=      5-min Rain = 0
KSB1 250010Z 32013KT 22/M08 A3015 RMK A01 T02231079  RH  013%=      5-min Rain = 0
KSB1 250011Z 31013KT 22/M08 A3015 RMK A01 T02211082  RH  012%=      5-min Rain = 0
KSB1 250012Z 31012KT 22/M08 A3015 RMK A01 T02201082  RH  012%=      5-min Rain = 0
KSB1 250013Z 31013KT 22/M08 A3015 RMK A01 T02201083  RH  012%=      5-min Rain = 0
KSB1 250014Z 31013KT 22/M09 A3015 RMK A01 T02191085  RH  012%=      5-min Rain = 0
KSB1 250015Z 32014KT 22/M08 A3015 RMK A01 T02181084  RH  012%=      5-min Rain = 0
KSB1 250016Z 32014KT 22/M08 A3015 RMK A01 T02171084  RH  013%=      5-min Rain = 0
KSB1 250017Z 31013G18KT 22/M08 A3015 RMK A01 T02171083  RH  013%=      5-min Rain = 0
KSB1 250018Z 31015KT 22/M08 A3015 RMK A01 T02171083  RH  013%=      5-min Rain = 0
KSB1 250019Z 31014KT 22/M08 A3015 RMK A01 T02171083  RH  013%=      5-min Rain = 0
KSB1 250020Z 31012KT 22/M08 A3015 RMK A01 T02161083  RH  013%=      5-min Rain = 0
KSB1 250021Z 31010KT 22/M08 A3015 RMK A01 T02161083  RH  013%=      5-min Rain = 0
KSB1 250022Z 31011KT 22/M08 A3015 RMK A01 T02161082  RH  013%=      5-min Rain = 0
KSB1 250023Z 30010KT 22/M08 A3015 RMK A01 T02171083  RH  013%=      5-min Rain = 0
KSB1 250024Z 29011KT 22/M08 A3015 RMK A01 T02171083  RH  013%=      5-min Rain = 0
KSB1 250025Z 30011KT 22/M08 A3015 RMK A01 T02171083  RH  013%=      5-min Rain = 0
KSB1 250026Z 30014G19KT 22/M08 A3015 RMK A01 T02171084  RH  013%=      5-min Rain = 0
KSB1 250027Z 29013KT 22/M09 A3016 RMK A01 T02161085  RH  013%=      5-min Rain = 0
KSB1 250028Z 30011KT 22/M09 A3016 RMK A01 T02161085  RH  013%=      5-min Rain = 0
KSB1 250029Z 28008KT 22/M08 A3016 RMK A01 T02161084  RH  013%=      5-min Rain = 0
KSB1 250030Z 30009KT 22/M08 A3016 RMK A01 T02161083  RH  013%=      5-min Rain = 0
KSB1 250031Z 30010KT 22/M08 A3016 RMK A01 T02161083  RH  013%=      5-min Rain = 0
KSB1 250032Z 30010KT 22/M08 A3016 RMK A01 T02151083  RH  013%=      5-min Rain = 0
KSB1 250033Z 30011KT 21/M08 A3016 RMK A01 T02141083  RH  013%=      5-min Rain = 0
KSB1 250034Z 30008KT 21/M08 A3016 RMK A01 T02131084  RH  013%=      5-min Rain = 0
KSB1 250035Z 30009KT 21/M08 A3016 RMK A01 T02131084  RH  013%=      5-min Rain = 0
KSB1 250036Z 31007G14KT 21/M09 A3016 RMK A01 T02121085  RH  013%=      5-min Rain = 0
KSB1 250037Z 31012KT 21/M09 A3016 RMK A01 T02111085  RH  013%=      5-min Rain = 0
KSB1 250038Z 32014KT 21/M09 A3016 RMK A01 T02101087  RH  013%=      5-min Rain = 0
KSB1 250039Z 31011KT 21/M09 A3016 RMK A01 T02101088  RH  013%=      5-min Rain = 0
KSB1 250040Z 31014KT 21/M09 A3016 RMK A01 T02091087  RH  013%=      5-min Rain = 0
KSB1 250041Z 31011KT 21/M09 A3016 RMK A01 T02091088  RH  013%=      5-min Rain = 0
KSB1 250042Z 31012KT 21/M09 A3016 RMK A01 T02081088  RH  013%=      5-min Rain = 0
KSB1 250043Z 31011KT 21/M09 A3016 RMK A01 T02081088  RH  013%=      5-min Rain = 0
KSB1 250044Z 31011KT 21/M09 A3016 RMK A01 T02081088  RH  013%=      5-min Rain = 0
KSB1 250045Z 31012KT 21/M09 A3016 RMK A01 T02071088  RH  013%=      5-min Rain = 0
KSB1 250046Z 31013KT 21/M09 A3016 RMK A01 T02081087  RH  013%=      5-min Rain = 0
KSB1 250047Z 32010KT 21/M09 A3016 RMK A01 T02071087  RH  013%=      5-min Rain = 0
KSB1 250048Z 32012KT 21/M09 A3016 RMK A01 T02071087  RH  013%=      5-min Rain = 0
KSB1 250049Z 32012KT 21/M09 A3016 RMK A01 T02071087  RH  013%=      5-min Rain = 0
KSB1 250050Z 31011KT 21/M09 A3016 RMK A01 T02071086  RH  013%=      5-min Rain = 0
KSB1 250051Z 32010KT 21/M09 A3016 RMK A01 T02061086  RH  013%=      5-min Rain = 0
KSB1 250052Z 31007KT 21/M09 A3016 RMK A01 T02061086  RH  013%=      5-min Rain = 0
KSB1 250053Z 31009KT 21/M09 A3016 RMK A01 T02051085  RH  013%=      5-min Rain = 0
KSB1 250054Z 32008KT 21/M09 A3016 RMK A01 T02061085  RH  013%=      5-min Rain = 0
KSB1 250055Z 31008KT 21/M09 A3016 RMK A01 T02051085  RH  013%=      5-min Rain = 0
KSB1 250056Z 31010KT 21/M09 A3016 RMK A01 T02051085  RH  013%=      5-min Rain = 0
KSB1 250057Z 32012KT 21/M09 A3016 RMK A01 T02051086  RH  013%=      5-min Rain = 0
KSB1 250058Z 31011KT 21/M09 A3016 RMK A01 T02051086  RH  013%=      5-min Rain = 0
KSB1 250059Z 31009KT 21/M09 A3016 RMK A01 T02051087  RH  013%=      5-min Rain = 0
KSB1 250100Z 32009KT 21/M09 A3016 RMK A01 T02051086  RH  013%=      5-min Rain = 0
KSB1 250101Z 32010KT 20/M09 A3016 RMK A01 T02041086  RH  013%=      5-min Rain = 0
KSB1 250102Z 32011KT 20/M09 A3016 RMK A01 T02041086  RH  013%=      5-min Rain = 0
KSB1 250103Z 32011KT 20/M09 A3016 RMK A01 T02031087  RH  013%=      5-min Rain = 0
KSB1 250104Z 32008KT 20/M09 A3016 RMK A01 T02031087  RH  013%=      5-min Rain = 0
KSB1 250105Z 32008KT 20/M09 A3016 RMK A01 T02031087  RH  013%=      5-min Rain = 0
KSB1 250106Z 31009KT 20/M09 A3016 RMK A01 T02021087  RH  013%=      5-min Rain = 0
KSB1 250107Z 31009KT 20/M09 A3016 RMK A01 T02021087  RH  013%=      5-min Rain = 0
KSB1 250108Z 32009KT 20/M09 A3016 RMK A01 T02021086  RH  013%=      5-min Rain = 0
KSB1 250109Z 32007KT 20/M09 A3016 RMK A01 T02021086  RH  013%=      5-min Rain = 0
KSB1 250110Z 31008KT 20/M09 A3016 RMK A01 T02021086  RH  014%=      5-min Rain = 0
KSB1 250111Z 31006KT 20/M09 A3016 RMK A01 T02021086  RH  014%=      5-min Rain = 0
KSB1 250112Z 31007KT 20/M09 A3016 RMK A01 T02021085  RH  014%=      5-min Rain = 0
KSB1 250113Z 31009KT 20/M09 A3016 RMK A01 T02011086  RH  014%=      5-min Rain = 0
KSB1 250114Z 32011KT 20/M09 A3016 RMK A01 T02011086  RH  014%=      5-min Rain = 0
KSB1 250115Z 31014KT 20/M09 A3016 RMK A01 T02011087  RH  013%=      5-min Rain = 0
KSB1 250116Z 31013KT 20/M09 A3016 RMK A01 T02021087  RH  013%=      5-min Rain = 0
KSB1 250117Z 31013KT 20/M09 A3016 RMK A01 T02021087  RH  013%=      5-min Rain = 0
KSB1 250118Z 31012KT 20/M09 A3016 RMK A01 T02021087  RH  013%=      5-min Rain = 0
KSB1 250119Z 31012KT 20/M09 A3016 RMK A01 T02021087  RH  013%=      5-min Rain = 0
KSB1 250120Z 32013KT 20/M09 A3016 RMK A01 T02021087  RH  013%=      5-min Rain = 0
KSB1 250121Z 31012KT 20/M09 A3016 RMK A01 T02011087  RH  014%=      5-min Rain = 0
KSB1 250122Z 31011KT 20/M09 A3016 RMK A01 T02011087  RH  014%=      5-min Rain = 0
KSB1 250123Z 31011KT 20/M09 A3016 RMK A01 T02011087  RH  014%=      5-min Rain = 0
KSB1 250124Z 31011KT 20/M09 A3016 RMK A01 T02011087  RH  013%=      5-min Rain = 0
KSB1 250125Z 30011KT 20/M09 A3016 RMK A01 T02011088  RH  013%=      5-min Rain = 0
KSB1 250126Z 31009KT 20/M09 A3016 RMK A01 T02001088  RH  013%=      5-min Rain = 0
KSB1 250127Z 31011KT 20/M09 A3016 RMK A01 T02001088  RH  013%=      5-min Rain = 0
KSB1 250128Z 31010KT 20/M09 A3016 RMK A01 T02001088  RH  013%=      5-min Rain = 0
KSB1 250129Z 31011KT 20/M09 A3016 RMK A01 T02001088  RH  013%=      5-min Rain = 0
KSB1 250130Z 31010KT 20/M09 A3016 RMK A01 T02001088  RH  013%=      5-min Rain = 0
KSB1 250131Z 32009KT 20/M09 A3016 RMK A01 T02001088  RH  014%=      5-min Rain = 0
KSB1 250132Z 31009KT 20/M09 A3016 RMK A01 T01991088  RH  014%=      5-min Rain = 0
KSB1 250133Z 31009KT 20/M09 A3016 RMK A01 T01981088  RH  014%=      5-min Rain = 0
KSB1 250134Z 31010KT 20/M09 A3016 RMK A01 T01981088  RH  014%=      5-min Rain = 0
KSB1 250135Z 32010KT 20/M09 A3016 RMK A01 T01981088  RH  014%=      5-min Rain = 0
KSB1 250136Z 31010KT 20/M09 A3016 RMK A01 T01981088  RH  014%=      5-min Rain = 0
KSB1 250137Z 31009KT 20/M09 A3016 RMK A01 T01971089  RH  014%=      5-min Rain = 0
KSB1 250138Z 32010KT 20/M09 A3016 RMK A01 T01971089  RH  014%=      5-min Rain = 0
KSB1 250139Z 31010KT 20/M09 A3016 RMK A01 T01971088  RH  014%=      5-min Rain = 0
KSB1 250140Z 32009KT 20/M09 A3016 RMK A01 T01971088  RH  014%=      5-min Rain = 0
KSB1 250141Z 31009KT 20/M09 A3016 RMK A01 T01961089  RH  014%=      5-min Rain = 0
KSB1 250142Z 32010KT 20/M09 A3016 RMK A01 T01961089  RH  014%=      5-min Rain = 0
KSB1 250143Z 32008KT 20/M09 A3016 RMK A01 T01961089  RH  014%=      5-min Rain = 0
KSB1 250144Z 31009KT 20/M09 A3016 RMK A01 T01961089  RH  014%=      5-min Rain = 0
KSB1 250145Z 32009KT 20/M09 A3016 RMK A01 T01961088  RH  014%=      5-min Rain = 0
KSB1 250146Z 31009KT 20/M09 A3016 RMK A01 T01951089  RH  014%=      5-min Rain = 0
KSB1 250147Z 32009KT 20/M09 A3017 RMK A01 T01951089  RH  014%=      5-min Rain = 0
KSB1 250148Z 32008KT 20/M09 A3017 RMK A01 T01951089  RH  014%=      5-min Rain = 0
KSB1 250149Z 32008KT 19/M09 A3017 RMK A01 T01941088  RH  014%=      5-min Rain = 0
KSB1 250150Z 32009KT 19/M09 A3017 RMK A01 T01931088  RH  014%=      5-min Rain = 0
KSB1 250151Z 33009KT 19/M09 A3017 RMK A01 T01931088  RH  014%=      5-min Rain = 0
KSB1 250152Z 33008KT 19/M09 A3017 RMK A01 T01931087  RH  014%=      5-min Rain = 0
KSB1 250153Z 33008KT 19/M09 A3017 RMK A01 T01921087  RH  014%=      5-min Rain = 0
KSB1 250154Z 33008KT 19/M09 A3017 RMK A01 T01911087  RH  014%=      5-min Rain = 0
KSB1 250155Z 33008KT 19/M09 A3017 RMK A01 T01901086  RH  015%=      5-min Rain = 0
KSB1 250156Z 33008KT 19/M09 A3017 RMK A01 T01881086  RH  015%=      5-min Rain = 0
KSB1 250157Z 33009KT 19/M09 A3017 RMK A01 T01881086  RH  015%=      5-min Rain = 0
KSB1 250158Z 33009KT 19/M09 A3017 RMK A01 T01871086  RH  015%=      5-min Rain = 0
KSB1 250159Z 33009KT 19/M09 A3017 RMK A01 T01861086  RH  015%=      5-min Rain = 0
KSB1 250200Z 34009KT 19/M09 A3017 RMK A01 T01851085  RH  015%=      5-min Rain = 0
KSB1 250201Z 34009KT 18/M09 A3017 RMK A01 T01841085  RH  015%=      5-min Rain = 0
KSB1 250202Z 34009KT 18/M09 A3017 RMK A01 T01821085  RH  015%=      5-min Rain = 0
KSB1 250203Z 34009KT 18/M09 A3017 RMK A01 T01821085  RH  015%=      5-min Rain = 0
KSB1 250204Z 34009KT 18/M09 A3017 RMK A01 T01811085  RH  016%=      5-min Rain = 0
KSB1 250205Z 34009KT 18/M08 A3017 RMK A01 T01801084  RH  016%=      5-min Rain = 0
KSB1 250206Z 34009KT 18/M09 A3017 RMK A01 T01791085  RH  016%=      5-min Rain = 0
KSB1 250207Z 34009KT 18/M08 A3017 RMK A01 T01791084  RH  016%=      5-min Rain = 0
KSB1 250208Z 34009KT 18/M09 A3017 RMK A01 T01771085  RH  016%=      5-min Rain = 0
KSB1 250209Z 34009KT 18/M09 A3017 RMK A01 T01761085  RH  016%=      5-min Rain = 0
KSB1 250210Z 34009KT 18/M09 A3017 RMK A01 T01751085  RH  016%=      5-min Rain = 0
KSB1 250211Z 34009KT 17/M09 A3017 RMK A01 T01731085  RH  016%=      5-min Rain = 0
KSB1 250212Z 34009KT 17/M09 A3017 RMK A01 T01731085  RH  016%=      5-min Rain = 0
KSB1 250213Z 34009KT 17/M09 A3017 RMK A01 T01731086  RH  016%=      5-min Rain = 0
KSB1 250214Z 34009KT 17/M09 A3017 RMK A01 T01731086  RH  016%=      5-min Rain = 0
KSB1 250215Z 34009KT 17/M09 A3017 RMK A01 T01721086  RH  016%=      5-min Rain = 0
KSB1 250216Z 34008KT 17/M09 A3017 RMK A01 T01711086  RH  016%=      5-min Rain = 0
KSB1 250217Z 34009KT 17/M09 A3017 RMK A01 T01711086  RH  016%=      5-min Rain = 0
KSB1 250218Z 33009KT 17/M09 A3017 RMK A01 T01701086  RH  016%=      5-min Rain = 0
KSB1 250219Z 33009KT 17/M09 A3017 RMK A01 T01701087  RH  016%=      5-min Rain = 0
KSB1 250220Z 33009KT 17/M09 A3017 RMK A01 T01711087  RH  016%=      5-min Rain = 0
KSB1 250221Z 33009KT 17/M09 A3017 RMK A01 T01701088  RH  016%=      5-min Rain = 0
KSB1 250222Z 32009KT 17/M09 A3017 RMK A01 T01701089  RH  016%=      5-min Rain = 0
KSB1 250223Z 32009KT 17/M09 A3017 RMK A01 T01711089  RH  016%=      5-min Rain = 0
KSB1 250224Z 32009KT 17/M09 A3017 RMK A01 T01721089  RH  016%=      5-min Rain = 0
KSB1 250225Z 32009KT 17/M09 A3017 RMK A01 T01721089  RH  016%=      5-min Rain = 0
KSB1 250226Z 32009KT 17/M09 A3017 RMK A01 T01731089  RH  016%=      5-min Rain = 0
KSB1 250227Z 33009KT 17/M09 A3017 RMK A01 T01731090  RH  016%=      5-min Rain = 0
KSB1 250228Z 33009KT 17/M09 A3017 RMK A01 T01731090  RH  016%=      5-min Rain = 0
KSB1 250229Z 33010KT 17/M09 A3017 RMK A01 T01731090  RH  016%=      5-min Rain = 0
KSB1 250230Z 33009KT 17/M09 A3017 RMK A01 T01741089  RH  016%=      5-min Rain = 0
KSB1 250231Z 33009KT 17/M09 A3017 RMK A01 T01741090  RH  016%=      5-min Rain = 0
KSB1 250232Z 33009KT 17/M09 A3018 RMK A01 T01741089  RH  016%=      5-min Rain = 0
KSB1 250233Z 33009KT 17/M09 A3018 RMK A01 T01741089  RH  016%=      5-min Rain = 0
KSB1 250234Z 32009KT 17/M09 A3018 RMK A01 T01741089  RH  016%=      5-min Rain = 0
KSB1 250235Z 32009KT 17/M09 A3018 RMK A01 T01741089  RH  016%=      5-min Rain = 0
KSB1 250236Z 32008KT 17/M09 A3018 RMK A01 T01741089  RH  016%=      5-min Rain = 0
KSB1 250237Z 32009KT 17/M09 A3018 RMK A01 T01741089  RH  016%=      5-min Rain = 0
KSB1 250238Z 32008KT 17/M09 A3018 RMK A01 T01741089  RH  016%=      5-min Rain = 0
KSB1 250239Z 33009KT 18/M09 A3018 RMK A01 T01751089  RH  016%=      5-min Rain = 0
KSB1 250240Z 33008KT 18/M09 A3018 RMK A01 T01751088  RH  016%=      5-min Rain = 0
KSB1 250241Z 33009KT 17/M09 A3018 RMK A01 T01741088  RH  016%=      5-min Rain = 0
KSB1 250242Z 32009KT 17/M09 A3018 RMK A01 T01731088  RH  016%=      5-min Rain = 0
KSB1 250243Z 32009KT 17/M09 A3018 RMK A01 T01721088  RH  016%=      5-min Rain = 0
KSB1 250244Z 33009KT 17/M09 A3018 RMK A01 T01711088  RH  016%=      5-min Rain = 0
KSB1 250245Z 33009KT 17/M09 A3018 RMK A01 T01721087  RH  016%=      5-min Rain = 0
KSB1 250246Z 32009KT 17/M09 A3018 RMK A01 T01721088  RH  016%=      5-min Rain = 0
KSB1 250247Z 32009KT 17/M09 A3018 RMK A01 T01721087  RH  016%=      5-min Rain = 0
KSB1 250248Z 32008KT 17/M09 A3018 RMK A01 T01731087  RH  016%=      5-min Rain = 0
KSB1 250249Z 32009KT 17/M09 A3018 RMK A01 T01741087  RH  016%=      5-min Rain = 0
KSB1 250250Z 32008KT 18/M09 A3018 RMK A01 T01751088  RH  016%=      5-min Rain = 0
KSB1 250251Z 31008KT 18/M09 A3018 RMK A01 T01761088  RH  016%=      5-min Rain = 0
KSB1 250252Z 32008KT 18/M09 A3018 RMK A01 T01761088  RH  016%=      5-min Rain = 0
KSB1 250253Z 32008KT 18/M09 A3018 RMK A01 T01771088  RH  016%=      5-min Rain = 0
KSB1 250254Z 31008KT 18/M09 A3018 RMK A01 T01771088  RH  016%=      5-min Rain = 0
KSB1 250255Z 31007KT 18/M09 A3018 RMK A01 T01791087  RH  015%=      5-min Rain = 0
KSB1 250256Z 31007KT 18/M09 A3018 RMK A01 T01791087  RH  015%=      5-min Rain = 0
KSB1 250257Z 32007KT 18/M09 A3018 RMK A01 T01801087  RH  015%=      5-min Rain = 0
KSB1 250258Z 32007KT 18/M09 A3018 RMK A01 T01811086  RH  015%=      5-min Rain = 0
KSB1 250259Z 32006KT 18/M09 A3018 RMK A01 T01821087  RH  015%=      5-min Rain = 0
KSB1 250300Z 31005KT 18/M09 A3018 RMK A01 T01831086  RH  015%=      5-min Rain = 0
KSB1 250301Z 31005KT 18/M09 A3019 RMK A01 T01831086  RH  015%=      5-min Rain = 0
KSB1 250302Z 31006KT 18/M09 A3019 RMK A01 T01821085  RH  015%=      5-min Rain = 0
KSB1 250303Z 31006KT 18/M09 A3019 RMK A01 T01821085  RH  015%=      5-min Rain = 0
KSB1 250304Z 31006KT 18/M09 A3019 RMK A01 T01821086  RH  015%=      5-min Rain = 0
KSB1 250305Z 31007KT 18/M09 A3019 RMK A01 T01831085  RH  015%=      5-min Rain = 0
KSB1 250306Z 31006KT 18/M09 A3019 RMK A01 T01831085  RH  015%=      5-min Rain = 0
KSB1 250307Z 30005KT 18/M08 A3019 RMK A01 T01821084  RH  015%=      5-min Rain = 0
KSB1 250308Z 30005KT 18/M09 A3019 RMK A01 T01781086  RH  016%=      5-min Rain = 0
KSB1 250309Z 30005KT 17/M09 A3019 RMK A01 T01671090  RH  016%=      5-min Rain = 0
KSB1 250310Z 29004KT 16/M09 A3019 RMK A01 T01591090  RH  017%=      5-min Rain = 0
KSB1 250311Z 30005KT 15/M09 A3019 RMK A01 T01541089  RH  018%=      5-min Rain = 0
KSB1 250312Z 31006KT 15/M09 A3019 RMK A01 T01531088  RH  018%=      5-min Rain = 0
KSB1 250313Z 31004KT 15/M09 A3019 RMK A01 T01531086  RH  018%=      5-min Rain = 0
KSB1 250314Z 30004KT 15/M09 A3019 RMK A01 T01531086  RH  018%=      5-min Rain = 0
KSB1 250315Z 29005KT 15/M09 A3019 RMK A01 T01531087  RH  018%=      5-min Rain = 0
KSB1 250316Z 28005KT 15/M09 A3019 RMK A01 T01531086  RH  018%=      5-min Rain = 0
KSB1 250317Z 28006KT 15/M09 A3019 RMK A01 T01531086  RH  018%=      5-min Rain = 0
KSB1 250318Z 29006KT 15/M09 A3019 RMK A01 T01521087  RH  018%=      5-min Rain = 0
KSB1 250319Z 29006KT 15/M09 A3019 RMK A01 T01521086  RH  018%=      5-min Rain = 0
KSB1 250320Z 29006KT 15/M09 A302 RMK A01 T01521086  RH  018%=      5-min Rain = 0
KSB1 250321Z 29006KT 15/M09 A302 RMK A01 T01521086  RH  018%=      5-min Rain = 0
KSB1 250322Z 29006KT 15/M09 A302 RMK A01 T01531085  RH  019%=      5-min Rain = 0
KSB1 250323Z 30006KT 15/M08 A302 RMK A01 T01541084  RH  019%=      5-min Rain = 0
KSB1 250324Z 30005KT 16/M09 A302 RMK A01 T01561085  RH  018%=      5-min Rain = 0
KSB1 250325Z 31005KT 16/M09 A302 RMK A01 T01581085  RH  018%=      5-min Rain = 0
KSB1 250326Z 34004KT 16/M08 A302 RMK A01 T01601084  RH  018%=      5-min Rain = 0
KSB1 250327Z 34004KT 16/M09 A302 RMK A01 T01621085  RH  018%=      5-min Rain = 0
KSB1 250328Z 34005KT 16/M09 A302 RMK A01 T01621085  RH  017%=      5-min Rain = 0
KSB1 250329Z 35005KT 16/M09 A302 RMK A01 T01621085  RH  017%=      5-min Rain = 0
KSB1 250330Z 34005KT 16/M09 A302 RMK A01 T01621085  RH  017%=      5-min Rain = 0
KSB1 250331Z 34005KT 16/M09 A302 RMK A01 T01621085  RH  018%=      5-min Rain = 0
KSB1 250332Z 33005KT 16/M09 A302 RMK A01 T01621085  RH  018%=      5-min Rain = 0
KSB1 250333Z 34005KT 16/M09 A302 RMK A01 T01621086  RH  017%=      5-min Rain = 0
KSB1 250334Z 33005KT 16/M09 A302 RMK A01 T01621085  RH  018%=      5-min Rain = 0
KSB1 250335Z 33005KT 16/M08 A302 RMK A01 T01611084  RH  018%=      5-min Rain = 0
KSB1 250336Z 33005KT 16/M08 A302 RMK A01 T01611084  RH  018%=      5-min Rain = 0
KSB1 250337Z 32004KT 16/M08 A302 RMK A01 T01611084  RH  018%=      5-min Rain = 0
KSB1 250338Z 33004KT 16/M08 A302 RMK A01 T01611084  RH  018%=      5-min Rain = 0
KSB1 250339Z 33004KT 16/M09 A302 RMK A01 T01611085  RH  018%=      5-min Rain = 0
KSB1 250340Z 33005KT 16/M09 A302 RMK A01 T01621085  RH  018%=      5-min Rain = 0
KSB1 250341Z 33005KT 16/M09 A302 RMK A01 T01621085  RH  018%=      5-min Rain = 0
KSB1 250342Z 33004KT 16/M09 A302 RMK A01 T01621085  RH  018%=      5-min Rain = 0
KSB1 250343Z 32004KT 16/M09 A302 RMK A01 T01621085  RH  017%=      5-min Rain = 0
KSB1 250344Z 32004KT 16/M09 A302 RMK A01 T01621085  RH  018%=      5-min Rain = 0
KSB1 250345Z 32005KT 16/M08 A302 RMK A01 T01621084  RH  018%=      5-min Rain = 0
KSB1 250346Z 32005KT 16/M08 A302 RMK A01 T01621084  RH  018%=      5-min Rain = 0
KSB1 250347Z 31005KT 16/M08 A302 RMK A01 T01611083  RH  018%=      5-min Rain = 0
KSB1 250348Z 30005KT 16/M08 A3021 RMK A01 T01611083  RH  018%=      5-min Rain = 0
KSB1 250349Z 30005KT 16/M08 A3021 RMK A01 T01591082  RH  018%=      5-min Rain = 0
KSB1 250350Z 30006KT 16/M08 A3021 RMK A01 T01591083  RH  018%=      5-min Rain = 0
KSB1 250351Z 30005KT 16/M08 A3021 RMK A01 T01621081  RH  018%=      5-min Rain = 0
KSB1 250352Z 31006KT 16/M08 A3021 RMK A01 T01631081  RH  018%=      5-min Rain = 0
KSB1 250353Z 31005KT 17/M08 A3021 RMK A01 T01661081  RH  018%=      5-min Rain = 0
KSB1 250354Z 31006KT 17/M08 A3021 RMK A01 T01681082  RH  017%=      5-min Rain = 0
KSB1 250355Z 30006KT 17/M08 A3021 RMK A01 T01681083  RH  017%=      5-min Rain = 0
KSB1 250356Z 30006KT 17/M08 A3021 RMK A01 T01681083  RH  017%=      5-min Rain = 0
KSB1 250357Z 31007KT 17/M08 A3021 RMK A01 T01691084  RH  017%=      5-min Rain = 0
KSB1 250358Z 32006KT 17/M08 A3021 RMK A01 T01701084  RH  017%=      5-min Rain = 0
KSB1 250359Z 31006KT 17/M09 A3021 RMK A01 T01701086  RH  017%=      5-min Rain = 0
KSB1 250400Z 31007KT 17/M09 A3021 RMK A01 T01701086  RH  016%=      5-min Rain = 0
KSB1 250401Z 31007KT 17/M09 A3021 RMK A01 T01711085  RH  016%=      5-min Rain = 0
KSB1 250402Z 31007KT 17/M09 A3021 RMK A01 T01711088  RH  016%=      5-min Rain = 0
KSB1 250403Z 31007KT 17/M09 A3021 RMK A01 T01711088  RH  016%=      5-min Rain = 0
KSB1 250404Z 32007KT 17/M09 A3021 RMK A01 T01711089  RH  016%=      5-min Rain = 0
KSB1 250405Z 32007KT 17/M09 A3021 RMK A01 T01721089  RH  016%=      5-min Rain = 0
KSB1 250406Z 32007KT 17/M09 A3021 RMK A01 T01731089  RH  016%=      5-min Rain = 0
KSB1 250407Z 31007KT 17/M09 A3021 RMK A01 T01741090  RH  016%=      5-min Rain = 0
KSB1 250408Z 32007KT 17/M09 A3021 RMK A01 T01741091  RH  016%=      5-min Rain = 0
KSB1 250409Z 32007KT 17/M09 A3021 RMK A01 T01741091  RH  016%=      5-min Rain = 0
KSB1 250410Z 32006KT 17/M09 A3021 RMK A01 T01741091  RH  015%=      5-min Rain = 0
KSB1 250411Z 32007KT 17/M09 A3021 RMK A01 T01741091  RH  015%=      5-min Rain = 0
KSB1 250412Z 32006KT 17/M09 A3021 RMK A01 T01741091  RH  016%=      5-min Rain = 0
KSB1 250413Z 31007KT 17/M09 A3021 RMK A01 T01731091  RH  015%=      5-min Rain = 0
KSB1 250414Z 32006KT 17/M09 A3021 RMK A01 T01731092  RH  016%=      5-min Rain = 0
KSB1 250415Z 31006KT 17/M09 A3021 RMK A01 T01721092  RH  015%=      5-min Rain = 0
KSB1 250416Z 31006KT 17/M09 A3021 RMK A01 T01721092  RH  016%=      5-min Rain = 0
KSB1 250417Z 31006KT 17/M09 A3021 RMK A01 T01711091  RH  016%=      5-min Rain = 0
KSB1 250418Z 31006KT 17/M09 A3021 RMK A01 T01701090  RH  016%=      5-min Rain = 0
KSB1 250419Z 31005KT 17/M09 A3021 RMK A01 T01691091  RH  016%=      5-min Rain = 0
KSB1 250420Z 32005KT 17/M09 A3021 RMK A01 T01691091  RH  016%=      5-min Rain = 0
KSB1 250421Z 31004KT 17/M09 A3021 RMK A01 T01691092  RH  016%=      5-min Rain = 0
KSB1 250422Z 31004KT 17/M09 A3021 RMK A01 T01691092  RH  016%=      5-min Rain = 0
KSB1 250423Z 30004KT 17/M09 A3021 RMK A01 T01691092  RH  016%=      5-min Rain = 0
KSB1 250424Z 30004KT 17/M09 A3021 RMK A01 T01691091  RH  016%=      5-min Rain = 0
KSB1 250425Z 31004KT 17/M09 A3021 RMK A01 T01681089  RH  016%=      5-min Rain = 0
KSB1 250426Z 32004KT 17/M09 A3021 RMK A01 T01661090  RH  016%=      5-min Rain = 0
KSB1 250427Z 31004KT 17/M09 A3021 RMK A01 T01651091  RH  016%=      5-min Rain = 0
KSB1 250428Z 30004KT 17/M09 A3021 RMK A01 T01661092  RH  016%=      5-min Rain = 0
KSB1 250429Z 31004KT 17/M09 A3021 RMK A01 T01661091  RH  016%=      5-min Rain = 0
KSB1 250430Z 31003KT 17/M09 A3022 RMK A01 T01661092  RH  016%=      5-min Rain = 0
KSB1 250431Z 31004KT 17/M09 A3022 RMK A01 T01671094  RH  016%=      5-min Rain = 0
KSB1 250432Z 31004KT 17/M09 A3022 RMK A01 T01691093  RH  016%=      5-min Rain = 0
KSB1 250433Z 31004KT 17/M09 A3022 RMK A01 T01691092  RH  016%=      5-min Rain = 0
KSB1 250434Z 31004KT 17/M09 A3022 RMK A01 T01691092  RH  016%=      5-min Rain = 0
KSB1 250435Z 32004KT 17/M09 A3022 RMK A01 T01691092  RH  016%=      5-min Rain = 0
KSB1 250436Z 32004KT 17/M09 A3022 RMK A01 T01691093  RH  016%=      5-min Rain = 0
KSB1 250437Z 04004KT 17/M09 A3022 RMK A01 T01691092  RH  016%=      5-min Rain = 0
KSB1 250438Z 10005KT 16/M08 A3022 RMK A01 T01611084  RH  018%=      5-min Rain = 0
KSB1 250439Z 10004KT 15/M08 A3022 RMK A01 T01491083  RH  019%=      5-min Rain = 0
KSB1 250440Z 10003KT 14/M08 A3022 RMK A01 T01421083  RH  020%=      5-min Rain = 0
KSB1 250441Z 12003KT 14/M08 A3022 RMK A01 T01391082  RH  021%=      5-min Rain = 0
KSB1 250442Z 12002KT 14/M08 A3022 RMK A01 T01381083  RH  021%=      5-min Rain = 0
KSB1 250443Z 14000KT 14/M09 A3022 RMK A01 T01421085  RH  020%=      5-min Rain = 0
KSB1 250444Z 16001KT 15/M08 A3022 RMK A01 T01461083  RH  020%=      5-min Rain = 0
KSB1 250445Z 14000KT 15/M08 A3022 RMK A01 T01471083  RH  020%=      5-min Rain = 0
KSB1 250446Z 17000KT 15/M09 A3022 RMK A01 T01481085  RH  019%=      5-min Rain = 0
KSB1 250447Z 20000KT 15/M08 A3022 RMK A01 T01481082  RH  020%=      5-min Rain = 0
KSB1 250448Z 24001KT 15/M09 A3022 RMK A01 T01481085  RH  019%=      5-min Rain = 0
KSB1 250449Z 26001KT 15/M09 A3022 RMK A01 T01481085  RH  019%=      5-min Rain = 0
KSB1 250450Z 26001KT 15/M09 A3022 RMK A01 T01491085  RH  019%=      5-min Rain = 0
KSB1 250451Z 26001KT 15/M09 A3022 RMK A01 T01491087  RH  019%=      5-min Rain = 0
KSB1 250452Z 28002KT 15/M09 A3022 RMK A01 T01501087  RH  019%=      5-min Rain = 0
KSB1 250453Z 27001KT 15/M09 A3022 RMK A01 T01511087  RH  019%=      5-min Rain = 0
KSB1 250454Z 28002KT 15/M09 A3022 RMK A01 T01521087  RH  018%=      5-min Rain = 0
KSB1 250455Z 30003KT 15/M09 A3022 RMK A01 T01541088  RH  018%=      5-min Rain = 0
KSB1 250456Z 30003KT 16/M09 A3022 RMK A01 T01551089  RH  018%=      5-min Rain = 0
KSB1 250457Z 30005KT 16/M09 A3022 RMK A01 T01561089  RH  018%=      5-min Rain = 0
KSB1 250458Z 30004KT 16/M09 A3022 RMK A01 T01571091  RH  017%=      5-min Rain = 0
KSB1 250459Z 30005KT 16/M09 A3022 RMK A01 T01581093  RH  017%=      5-min Rain = 0

Page generated in 0.1388 seconds.